<?xml version="1.0" encoding="UTF-8" standalone="no" ?>
<gpx xmlns="http://www.topografix.com/GPX/1/1" xmlns:xsi="http://www.w3.org/2001/XMLSchema-instance" xsi:schemaLocation="http://www.topografix.com/GPX/1/1 http://www.topografix.com/GPX/1/1/gpx.xsd" version="1.1" creator="VisuGPX - https://www.visugpx.com">
  <metadata>
    <name>Rignac Randonnée 10 juil. 2021 à 08:34</name>
    <desc><![CDATA[Petite rando familiale . C'est la fête au village . 
Peu de difficultés. Accessible à tous.]]></desc>
  </metadata>
  <trk>
    <name><![CDATA[Rignac Randonnée 10 juil. 2021 à 08:34]]></name>
    <trkseg>
      <trkpt lat="44.80487" lon="1.69493">
        <ele>344.30249023438</ele>
        <time>2021-07-10T06:34:20Z</time>
      </trkpt>
      <trkpt lat="44.80495" lon="1.69489">
        <ele>337.52185058594</ele>
        <time>2021-07-10T06:34:26Z</time>
      </trkpt>
      <trkpt lat="44.80492" lon="1.69492">
        <ele>336.728515625</ele>
        <time>2021-07-10T06:39:11Z</time>
      </trkpt>
      <trkpt lat="44.8053" lon="1.69483">
        <ele>336.12799072266</ele>
        <time>2021-07-10T06:41:51Z</time>
      </trkpt>
      <trkpt lat="44.80521" lon="1.69478">
        <ele>335.10766601562</ele>
        <time>2021-07-10T06:41:54Z</time>
      </trkpt>
      <trkpt lat="44.80517" lon="1.69484">
        <ele>337.10314941406</ele>
        <time>2021-07-10T06:42:04Z</time>
      </trkpt>
      <trkpt lat="44.80508" lon="1.69493">
        <ele>342.77465820312</ele>
        <time>2021-07-10T06:42:08Z</time>
      </trkpt>
      <trkpt lat="44.80497" lon="1.69491">
        <ele>342.1875</ele>
        <time>2021-07-10T06:42:11Z</time>
      </trkpt>
      <trkpt lat="44.80489" lon="1.69493">
        <ele>340.25756835938</ele>
        <time>2021-07-10T06:43:26Z</time>
      </trkpt>
      <trkpt lat="44.80497" lon="1.69487">
        <ele>332.77563476562</ele>
        <time>2021-07-10T06:45:36Z</time>
      </trkpt>
      <trkpt lat="44.80496" lon="1.69499">
        <ele>333.09692382812</ele>
        <time>2021-07-10T06:50:09Z</time>
      </trkpt>
      <trkpt lat="44.80493" lon="1.69509">
        <ele>334.0771484375</ele>
        <time>2021-07-10T06:50:17Z</time>
      </trkpt>
      <trkpt lat="44.80485" lon="1.69516">
        <ele>334.4580078125</ele>
        <time>2021-07-10T06:50:25Z</time>
      </trkpt>
      <trkpt lat="44.80478" lon="1.69521">
        <ele>339.16564941406</ele>
        <time>2021-07-10T06:50:39Z</time>
      </trkpt>
      <trkpt lat="44.80471" lon="1.6953">
        <ele>333.30645751953</ele>
        <time>2021-07-10T06:51:07Z</time>
      </trkpt>
      <trkpt lat="44.80471" lon="1.69542">
        <ele>337.21197509766</ele>
        <time>2021-07-10T06:51:16Z</time>
      </trkpt>
      <trkpt lat="44.80467" lon="1.69552">
        <ele>334.01123046875</ele>
        <time>2021-07-10T06:51:23Z</time>
      </trkpt>
      <trkpt lat="44.8046" lon="1.69559">
        <ele>335.98742675781</ele>
        <time>2021-07-10T06:51:29Z</time>
      </trkpt>
      <trkpt lat="44.80453" lon="1.6956">
        <ele>335.11804199219</ele>
        <time>2021-07-10T06:51:34Z</time>
      </trkpt>
      <trkpt lat="44.80445" lon="1.69561">
        <ele>334.75866699219</ele>
        <time>2021-07-10T06:51:39Z</time>
      </trkpt>
      <trkpt lat="44.80436" lon="1.69562">
        <ele>332.32653808594</ele>
        <time>2021-07-10T06:51:46Z</time>
      </trkpt>
      <trkpt lat="44.80436" lon="1.69574">
        <ele>331.74987792969</ele>
        <time>2021-07-10T06:51:54Z</time>
      </trkpt>
      <trkpt lat="44.80429" lon="1.69579">
        <ele>331.64447021484</ele>
        <time>2021-07-10T06:52:03Z</time>
      </trkpt>
      <trkpt lat="44.80421" lon="1.69582">
        <ele>331.90393066406</ele>
        <time>2021-07-10T06:52:09Z</time>
      </trkpt>
      <trkpt lat="44.80412" lon="1.69583">
        <ele>333.97381591797</ele>
        <time>2021-07-10T06:52:16Z</time>
      </trkpt>
      <trkpt lat="44.80405" lon="1.69587">
        <ele>334.04907226562</ele>
        <time>2021-07-10T06:53:01Z</time>
      </trkpt>
      <trkpt lat="44.8041" lon="1.69585">
        <ele>340.17810058594</ele>
        <time>2021-07-10T07:10:45Z</time>
      </trkpt>
      <trkpt lat="44.8041" lon="1.69585">
        <ele>340.17810058594</ele>
        <time>2021-07-10T07:10:45Z</time>
      </trkpt>
      <trkpt lat="44.8041" lon="1.69585">
        <ele>340.53332519531</ele>
        <time>2021-07-10T07:11:12Z</time>
      </trkpt>
      <trkpt lat="44.80418" lon="1.69583">
        <ele>343.41247558594</ele>
        <time>2021-07-10T07:11:32Z</time>
      </trkpt>
      <trkpt lat="44.80426" lon="1.69578">
        <ele>343.25018310547</ele>
        <time>2021-07-10T07:11:43Z</time>
      </trkpt>
      <trkpt lat="44.80434" lon="1.6958">
        <ele>340.25073242188</ele>
        <time>2021-07-10T07:11:55Z</time>
      </trkpt>
      <trkpt lat="44.80443" lon="1.69582">
        <ele>338.60034179688</ele>
        <time>2021-07-10T07:12:08Z</time>
      </trkpt>
      <trkpt lat="44.80451" lon="1.69579">
        <ele>339.00646972656</ele>
        <time>2021-07-10T07:12:16Z</time>
      </trkpt>
      <trkpt lat="44.80458" lon="1.69579">
        <ele>340.07287597656</ele>
        <time>2021-07-10T07:12:22Z</time>
      </trkpt>
      <trkpt lat="44.80462" lon="1.69569">
        <ele>338.86889648438</ele>
        <time>2021-07-10T07:12:31Z</time>
      </trkpt>
      <trkpt lat="44.80468" lon="1.69578">
        <ele>337.03405761719</ele>
        <time>2021-07-10T07:12:41Z</time>
      </trkpt>
      <trkpt lat="44.80469" lon="1.69589">
        <ele>333.43914794922</ele>
        <time>2021-07-10T07:12:54Z</time>
      </trkpt>
      <trkpt lat="44.8047" lon="1.69601">
        <ele>330.82507324219</ele>
        <time>2021-07-10T07:13:03Z</time>
      </trkpt>
      <trkpt lat="44.80471" lon="1.69613">
        <ele>331.03509521484</ele>
        <time>2021-07-10T07:13:14Z</time>
      </trkpt>
      <trkpt lat="44.80471" lon="1.69624">
        <ele>335.18774414062</ele>
        <time>2021-07-10T07:13:21Z</time>
      </trkpt>
      <trkpt lat="44.80475" lon="1.69632">
        <ele>336.07666015625</ele>
        <time>2021-07-10T07:13:28Z</time>
      </trkpt>
      <trkpt lat="44.80479" lon="1.69644">
        <ele>338.88946533203</ele>
        <time>2021-07-10T07:13:36Z</time>
      </trkpt>
      <trkpt lat="44.80479" lon="1.69653">
        <ele>338.32788085938</ele>
        <time>2021-07-10T07:13:42Z</time>
      </trkpt>
      <trkpt lat="44.80481" lon="1.69664">
        <ele>340.38928222656</ele>
        <time>2021-07-10T07:13:49Z</time>
      </trkpt>
      <trkpt lat="44.80486" lon="1.69674">
        <ele>343.18627929688</ele>
        <time>2021-07-10T07:13:59Z</time>
      </trkpt>
      <trkpt lat="44.80488" lon="1.69683">
        <ele>339.53161621094</ele>
        <time>2021-07-10T07:14:05Z</time>
      </trkpt>
      <trkpt lat="44.80491" lon="1.69695">
        <ele>338.52728271484</ele>
        <time>2021-07-10T07:14:11Z</time>
      </trkpt>
      <trkpt lat="44.80495" lon="1.69705">
        <ele>339.31726074219</ele>
        <time>2021-07-10T07:14:16Z</time>
      </trkpt>
      <trkpt lat="44.80496" lon="1.69717">
        <ele>339.98046875</ele>
        <time>2021-07-10T07:14:28Z</time>
      </trkpt>
      <trkpt lat="44.80499" lon="1.69727">
        <ele>341.55932617188</ele>
        <time>2021-07-10T07:14:37Z</time>
      </trkpt>
      <trkpt lat="44.80505" lon="1.69736">
        <ele>342.90405273438</ele>
        <time>2021-07-10T07:14:44Z</time>
      </trkpt>
      <trkpt lat="44.80511" lon="1.69742">
        <ele>340.80535888672</ele>
        <time>2021-07-10T07:14:52Z</time>
      </trkpt>
      <trkpt lat="44.80513" lon="1.69753">
        <ele>338.66674804688</ele>
        <time>2021-07-10T07:15:00Z</time>
      </trkpt>
      <trkpt lat="44.80513" lon="1.69766">
        <ele>338.92980957031</ele>
        <time>2021-07-10T07:15:08Z</time>
      </trkpt>
      <trkpt lat="44.80517" lon="1.69777">
        <ele>340.18786621094</ele>
        <time>2021-07-10T07:15:18Z</time>
      </trkpt>
      <trkpt lat="44.80513" lon="1.69785">
        <ele>337.28558349609</ele>
        <time>2021-07-10T07:15:26Z</time>
      </trkpt>
      <trkpt lat="44.80511" lon="1.69796">
        <ele>338.90509033203</ele>
        <time>2021-07-10T07:15:34Z</time>
      </trkpt>
      <trkpt lat="44.80505" lon="1.69804">
        <ele>339.45727539062</ele>
        <time>2021-07-10T07:15:39Z</time>
      </trkpt>
      <trkpt lat="44.80502" lon="1.69815">
        <ele>336.82720947266</ele>
        <time>2021-07-10T07:15:47Z</time>
      </trkpt>
      <trkpt lat="44.80501" lon="1.69827">
        <ele>340.06030273438</ele>
        <time>2021-07-10T07:15:55Z</time>
      </trkpt>
      <trkpt lat="44.80501" lon="1.69837">
        <ele>342.54650878906</ele>
        <time>2021-07-10T07:16:04Z</time>
      </trkpt>
      <trkpt lat="44.80504" lon="1.69848">
        <ele>343.64947509766</ele>
        <time>2021-07-10T07:16:10Z</time>
      </trkpt>
      <trkpt lat="44.80504" lon="1.6986">
        <ele>342.89630126953</ele>
        <time>2021-07-10T07:16:27Z</time>
      </trkpt>
      <trkpt lat="44.80507" lon="1.69871">
        <ele>343.86413574219</ele>
        <time>2021-07-10T07:16:40Z</time>
      </trkpt>
      <trkpt lat="44.80509" lon="1.69882">
        <ele>340.841796875</ele>
        <time>2021-07-10T07:16:47Z</time>
      </trkpt>
      <trkpt lat="44.80512" lon="1.69892">
        <ele>340.40655517578</ele>
        <time>2021-07-10T07:16:52Z</time>
      </trkpt>
      <trkpt lat="44.80515" lon="1.69902">
        <ele>342.33190917969</ele>
        <time>2021-07-10T07:16:59Z</time>
      </trkpt>
      <trkpt lat="44.80519" lon="1.69913">
        <ele>344.90869140625</ele>
        <time>2021-07-10T07:17:07Z</time>
      </trkpt>
      <trkpt lat="44.80524" lon="1.69922">
        <ele>342.48779296875</ele>
        <time>2021-07-10T07:17:15Z</time>
      </trkpt>
      <trkpt lat="44.80531" lon="1.69921">
        <ele>350.84924316406</ele>
        <time>2021-07-10T07:17:27Z</time>
      </trkpt>
      <trkpt lat="44.80539" lon="1.69918">
        <ele>349.27923583984</ele>
        <time>2021-07-10T07:17:33Z</time>
      </trkpt>
      <trkpt lat="44.80546" lon="1.69912">
        <ele>345.9423828125</ele>
        <time>2021-07-10T07:17:42Z</time>
      </trkpt>
      <trkpt lat="44.80553" lon="1.69905">
        <ele>346.97534179688</ele>
        <time>2021-07-10T07:17:49Z</time>
      </trkpt>
      <trkpt lat="44.80561" lon="1.699">
        <ele>352.31384277344</ele>
        <time>2021-07-10T07:17:59Z</time>
      </trkpt>
      <trkpt lat="44.80567" lon="1.69893">
        <ele>350.67370605469</ele>
        <time>2021-07-10T07:18:07Z</time>
      </trkpt>
      <trkpt lat="44.80575" lon="1.69889">
        <ele>348.64166259766</ele>
        <time>2021-07-10T07:18:17Z</time>
      </trkpt>
      <trkpt lat="44.8058" lon="1.69886">
        <ele>351.18151855469</ele>
        <time>2021-07-10T07:18:20Z</time>
      </trkpt>
      <trkpt lat="44.80586" lon="1.69882">
        <ele>350.98944091797</ele>
        <time>2021-07-10T07:18:26Z</time>
      </trkpt>
      <trkpt lat="44.80593" lon="1.69877">
        <ele>350.31396484375</ele>
        <time>2021-07-10T07:18:32Z</time>
      </trkpt>
      <trkpt lat="44.806" lon="1.69869">
        <ele>347.72705078125</ele>
        <time>2021-07-10T07:18:41Z</time>
      </trkpt>
      <trkpt lat="44.80606" lon="1.69861">
        <ele>343.0595703125</ele>
        <time>2021-07-10T07:18:48Z</time>
      </trkpt>
      <trkpt lat="44.80613" lon="1.69854">
        <ele>344.21978759766</ele>
        <time>2021-07-10T07:18:56Z</time>
      </trkpt>
      <trkpt lat="44.8062" lon="1.6985">
        <ele>348.25909423828</ele>
        <time>2021-07-10T07:19:05Z</time>
      </trkpt>
      <trkpt lat="44.80624" lon="1.69841">
        <ele>347.36676025391</ele>
        <time>2021-07-10T07:19:09Z</time>
      </trkpt>
      <trkpt lat="44.8063" lon="1.69836">
        <ele>348.69201660156</ele>
        <time>2021-07-10T07:19:15Z</time>
      </trkpt>
      <trkpt lat="44.80636" lon="1.69828">
        <ele>352.14624023438</ele>
        <time>2021-07-10T07:19:28Z</time>
      </trkpt>
      <trkpt lat="44.80641" lon="1.69819">
        <ele>347.96923828125</ele>
        <time>2021-07-10T07:19:36Z</time>
      </trkpt>
      <trkpt lat="44.80648" lon="1.69811">
        <ele>351.05096435547</ele>
        <time>2021-07-10T07:19:42Z</time>
      </trkpt>
      <trkpt lat="44.80652" lon="1.698">
        <ele>349.08050537109</ele>
        <time>2021-07-10T07:19:49Z</time>
      </trkpt>
      <trkpt lat="44.80655" lon="1.69789">
        <ele>345.03240966797</ele>
        <time>2021-07-10T07:20:01Z</time>
      </trkpt>
      <trkpt lat="44.80654" lon="1.69777">
        <ele>344.92938232422</ele>
        <time>2021-07-10T07:20:13Z</time>
      </trkpt>
      <trkpt lat="44.80659" lon="1.69767">
        <ele>345.77880859375</ele>
        <time>2021-07-10T07:20:22Z</time>
      </trkpt>
      <trkpt lat="44.80662" lon="1.69755">
        <ele>350.0517578125</ele>
        <time>2021-07-10T07:20:28Z</time>
      </trkpt>
      <trkpt lat="44.80668" lon="1.69746">
        <ele>350.14270019531</ele>
        <time>2021-07-10T07:20:41Z</time>
      </trkpt>
      <trkpt lat="44.80672" lon="1.69735">
        <ele>346.32067871094</ele>
        <time>2021-07-10T07:20:53Z</time>
      </trkpt>
      <trkpt lat="44.80676" lon="1.69725">
        <ele>347.00268554688</ele>
        <time>2021-07-10T07:20:59Z</time>
      </trkpt>
      <trkpt lat="44.80682" lon="1.69717">
        <ele>352.15759277344</ele>
        <time>2021-07-10T07:21:10Z</time>
      </trkpt>
      <trkpt lat="44.80689" lon="1.69709">
        <ele>350.51965332031</ele>
        <time>2021-07-10T07:21:21Z</time>
      </trkpt>
      <trkpt lat="44.80695" lon="1.69706">
        <ele>347.80828857422</ele>
        <time>2021-07-10T07:21:25Z</time>
      </trkpt>
      <trkpt lat="44.80703" lon="1.697">
        <ele>351.21673583984</ele>
        <time>2021-07-10T07:21:34Z</time>
      </trkpt>
      <trkpt lat="44.8071" lon="1.69703">
        <ele>345.91064453125</ele>
        <time>2021-07-10T07:21:52Z</time>
      </trkpt>
      <trkpt lat="44.80718" lon="1.69707">
        <ele>350.03125</ele>
        <time>2021-07-10T07:22:01Z</time>
      </trkpt>
      <trkpt lat="44.80727" lon="1.69708">
        <ele>346.56774902344</ele>
        <time>2021-07-10T07:22:08Z</time>
      </trkpt>
      <trkpt lat="44.80734" lon="1.69714">
        <ele>349.15081787109</ele>
        <time>2021-07-10T07:22:15Z</time>
      </trkpt>
      <trkpt lat="44.80738" lon="1.69723">
        <ele>349.43603515625</ele>
        <time>2021-07-10T07:22:20Z</time>
      </trkpt>
      <trkpt lat="44.80744" lon="1.69731">
        <ele>349.55578613281</ele>
        <time>2021-07-10T07:22:32Z</time>
      </trkpt>
      <trkpt lat="44.8075" lon="1.69737">
        <ele>351.48791503906</ele>
        <time>2021-07-10T07:22:40Z</time>
      </trkpt>
      <trkpt lat="44.80756" lon="1.69746">
        <ele>353.16925048828</ele>
        <time>2021-07-10T07:22:46Z</time>
      </trkpt>
      <trkpt lat="44.80764" lon="1.69747">
        <ele>352.37890625</ele>
        <time>2021-07-10T07:22:56Z</time>
      </trkpt>
      <trkpt lat="44.80771" lon="1.69754">
        <ele>356.93719482422</ele>
        <time>2021-07-10T07:23:03Z</time>
      </trkpt>
      <trkpt lat="44.80778" lon="1.69757">
        <ele>354.11389160156</ele>
        <time>2021-07-10T07:23:11Z</time>
      </trkpt>
      <trkpt lat="44.80785" lon="1.69764">
        <ele>353.91491699219</ele>
        <time>2021-07-10T07:23:17Z</time>
      </trkpt>
      <trkpt lat="44.80789" lon="1.69775">
        <ele>354.36193847656</ele>
        <time>2021-07-10T07:23:31Z</time>
      </trkpt>
      <trkpt lat="44.80795" lon="1.69781">
        <ele>357.53149414062</ele>
        <time>2021-07-10T07:23:39Z</time>
      </trkpt>
      <trkpt lat="44.80801" lon="1.69788">
        <ele>356.08447265625</ele>
        <time>2021-07-10T07:23:46Z</time>
      </trkpt>
      <trkpt lat="44.80808" lon="1.69795">
        <ele>358.72326660156</ele>
        <time>2021-07-10T07:23:59Z</time>
      </trkpt>
      <trkpt lat="44.80813" lon="1.69803">
        <ele>358.7041015625</ele>
        <time>2021-07-10T07:24:09Z</time>
      </trkpt>
      <trkpt lat="44.8082" lon="1.6981">
        <ele>359.44494628906</ele>
        <time>2021-07-10T07:24:16Z</time>
      </trkpt>
      <trkpt lat="44.80827" lon="1.69818">
        <ele>359.68115234375</ele>
        <time>2021-07-10T07:24:22Z</time>
      </trkpt>
      <trkpt lat="44.80832" lon="1.69825">
        <ele>357.63269042969</ele>
        <time>2021-07-10T07:24:29Z</time>
      </trkpt>
      <trkpt lat="44.8084" lon="1.69829">
        <ele>358.8388671875</ele>
        <time>2021-07-10T07:24:36Z</time>
      </trkpt>
      <trkpt lat="44.80849" lon="1.69833">
        <ele>360.17907714844</ele>
        <time>2021-07-10T07:24:45Z</time>
      </trkpt>
      <trkpt lat="44.80855" lon="1.69838">
        <ele>357.51556396484</ele>
        <time>2021-07-10T07:24:50Z</time>
      </trkpt>
      <trkpt lat="44.80861" lon="1.69848">
        <ele>357.13500976562</ele>
        <time>2021-07-10T07:25:02Z</time>
      </trkpt>
      <trkpt lat="44.80863" lon="1.69859">
        <ele>357.61755371094</ele>
        <time>2021-07-10T07:25:10Z</time>
      </trkpt>
      <trkpt lat="44.80865" lon="1.69871">
        <ele>357.43200683594</ele>
        <time>2021-07-10T07:25:22Z</time>
      </trkpt>
      <trkpt lat="44.80871" lon="1.69878">
        <ele>358.04516601562</ele>
        <time>2021-07-10T07:25:27Z</time>
      </trkpt>
      <trkpt lat="44.80879" lon="1.69879">
        <ele>359.61584472656</ele>
        <time>2021-07-10T07:25:33Z</time>
      </trkpt>
      <trkpt lat="44.80886" lon="1.69883">
        <ele>358.62609863281</ele>
        <time>2021-07-10T07:25:44Z</time>
      </trkpt>
      <trkpt lat="44.80892" lon="1.69892">
        <ele>357.5869140625</ele>
        <time>2021-07-10T07:25:51Z</time>
      </trkpt>
      <trkpt lat="44.80899" lon="1.69898">
        <ele>359.17663574219</ele>
        <time>2021-07-10T07:25:57Z</time>
      </trkpt>
      <trkpt lat="44.80905" lon="1.69904">
        <ele>360.62634277344</ele>
        <time>2021-07-10T07:26:02Z</time>
      </trkpt>
      <trkpt lat="44.80911" lon="1.69914">
        <ele>358.77563476562</ele>
        <time>2021-07-10T07:26:11Z</time>
      </trkpt>
      <trkpt lat="44.80917" lon="1.69922">
        <ele>358.82653808594</ele>
        <time>2021-07-10T07:26:23Z</time>
      </trkpt>
      <trkpt lat="44.80922" lon="1.69932">
        <ele>359.755859375</ele>
        <time>2021-07-10T07:26:32Z</time>
      </trkpt>
      <trkpt lat="44.80924" lon="1.69944">
        <ele>356.23907470703</ele>
        <time>2021-07-10T07:26:41Z</time>
      </trkpt>
      <trkpt lat="44.80926" lon="1.69955">
        <ele>352.43682861328</ele>
        <time>2021-07-10T07:26:45Z</time>
      </trkpt>
      <trkpt lat="44.80929" lon="1.69966">
        <ele>350.43591308594</ele>
        <time>2021-07-10T07:26:52Z</time>
      </trkpt>
      <trkpt lat="44.80934" lon="1.69975">
        <ele>351.95788574219</ele>
        <time>2021-07-10T07:26:59Z</time>
      </trkpt>
      <trkpt lat="44.80938" lon="1.69986">
        <ele>352.20568847656</ele>
        <time>2021-07-10T07:27:06Z</time>
      </trkpt>
      <trkpt lat="44.80942" lon="1.69997">
        <ele>351.61181640625</ele>
        <time>2021-07-10T07:27:16Z</time>
      </trkpt>
      <trkpt lat="44.80946" lon="1.70008">
        <ele>351.98107910156</ele>
        <time>2021-07-10T07:27:23Z</time>
      </trkpt>
      <trkpt lat="44.8095" lon="1.70018">
        <ele>351.16351318359</ele>
        <time>2021-07-10T07:27:31Z</time>
      </trkpt>
      <trkpt lat="44.80956" lon="1.70026">
        <ele>352.47668457031</ele>
        <time>2021-07-10T07:27:37Z</time>
      </trkpt>
      <trkpt lat="44.80962" lon="1.70036">
        <ele>348.1416015625</ele>
        <time>2021-07-10T07:27:46Z</time>
      </trkpt>
      <trkpt lat="44.80969" lon="1.70043">
        <ele>349.00354003906</ele>
        <time>2021-07-10T07:27:56Z</time>
      </trkpt>
      <trkpt lat="44.80974" lon="1.70052">
        <ele>346.86468505859</ele>
        <time>2021-07-10T07:28:10Z</time>
      </trkpt>
      <trkpt lat="44.8098" lon="1.70059">
        <ele>349.48876953125</ele>
        <time>2021-07-10T07:28:14Z</time>
      </trkpt>
      <trkpt lat="44.80986" lon="1.70066">
        <ele>350.65661621094</ele>
        <time>2021-07-10T07:28:19Z</time>
      </trkpt>
      <trkpt lat="44.80993" lon="1.70074">
        <ele>349.90319824219</ele>
        <time>2021-07-10T07:28:30Z</time>
      </trkpt>
      <trkpt lat="44.80998" lon="1.70083">
        <ele>349.15295410156</ele>
        <time>2021-07-10T07:28:38Z</time>
      </trkpt>
      <trkpt lat="44.81002" lon="1.70091">
        <ele>346.74615478516</ele>
        <time>2021-07-10T07:28:43Z</time>
      </trkpt>
      <trkpt lat="44.81005" lon="1.70102">
        <ele>347.32952880859</ele>
        <time>2021-07-10T07:28:49Z</time>
      </trkpt>
      <trkpt lat="44.81004" lon="1.70114">
        <ele>351.72399902344</ele>
        <time>2021-07-10T07:29:00Z</time>
      </trkpt>
      <trkpt lat="44.81006" lon="1.70125">
        <ele>351.22973632812</ele>
        <time>2021-07-10T07:29:06Z</time>
      </trkpt>
      <trkpt lat="44.81006" lon="1.70137">
        <ele>352.47180175781</ele>
        <time>2021-07-10T07:29:12Z</time>
      </trkpt>
      <trkpt lat="44.81008" lon="1.70147">
        <ele>351.34851074219</ele>
        <time>2021-07-10T07:29:20Z</time>
      </trkpt>
      <trkpt lat="44.81008" lon="1.70157">
        <ele>351.39312744141</ele>
        <time>2021-07-10T07:29:26Z</time>
      </trkpt>
      <trkpt lat="44.81008" lon="1.70169">
        <ele>353.20452880859</ele>
        <time>2021-07-10T07:29:33Z</time>
      </trkpt>
      <trkpt lat="44.81008" lon="1.70181">
        <ele>353.52099609375</ele>
        <time>2021-07-10T07:29:44Z</time>
      </trkpt>
      <trkpt lat="44.81007" lon="1.7019">
        <ele>353.39099121094</ele>
        <time>2021-07-10T07:29:50Z</time>
      </trkpt>
      <trkpt lat="44.81005" lon="1.70203">
        <ele>355.78735351562</ele>
        <time>2021-07-10T07:29:57Z</time>
      </trkpt>
      <trkpt lat="44.81002" lon="1.70213">
        <ele>357.20739746094</ele>
        <time>2021-07-10T07:30:03Z</time>
      </trkpt>
      <trkpt lat="44.80997" lon="1.70224">
        <ele>356.85693359375</ele>
        <time>2021-07-10T07:30:14Z</time>
      </trkpt>
      <trkpt lat="44.80993" lon="1.70234">
        <ele>356.14038085938</ele>
        <time>2021-07-10T07:30:25Z</time>
      </trkpt>
      <trkpt lat="44.8099" lon="1.70245">
        <ele>347.74822998047</ele>
        <time>2021-07-10T07:30:35Z</time>
      </trkpt>
      <trkpt lat="44.80988" lon="1.70257">
        <ele>349.89282226562</ele>
        <time>2021-07-10T07:30:42Z</time>
      </trkpt>
      <trkpt lat="44.80988" lon="1.70269">
        <ele>352.4091796875</ele>
        <time>2021-07-10T07:30:51Z</time>
      </trkpt>
      <trkpt lat="44.80987" lon="1.70279">
        <ele>354.50067138672</ele>
        <time>2021-07-10T07:31:00Z</time>
      </trkpt>
      <trkpt lat="44.80986" lon="1.70291">
        <ele>353.91760253906</ele>
        <time>2021-07-10T07:31:08Z</time>
      </trkpt>
      <trkpt lat="44.80985" lon="1.70303">
        <ele>355.94927978516</ele>
        <time>2021-07-10T07:31:15Z</time>
      </trkpt>
      <trkpt lat="44.80984" lon="1.70314">
        <ele>359.39306640625</ele>
        <time>2021-07-10T07:31:24Z</time>
      </trkpt>
      <trkpt lat="44.80983" lon="1.70326">
        <ele>360.85266113281</ele>
        <time>2021-07-10T07:31:33Z</time>
      </trkpt>
      <trkpt lat="44.80982" lon="1.70339">
        <ele>363.94689941406</ele>
        <time>2021-07-10T07:31:42Z</time>
      </trkpt>
      <trkpt lat="44.80984" lon="1.7035">
        <ele>366.63159179688</ele>
        <time>2021-07-10T07:31:51Z</time>
      </trkpt>
      <trkpt lat="44.8099" lon="1.70359">
        <ele>366.88916015625</ele>
        <time>2021-07-10T07:32:23Z</time>
      </trkpt>
      <trkpt lat="44.80997" lon="1.70353">
        <ele>366.12963867188</ele>
        <time>2021-07-10T07:32:36Z</time>
      </trkpt>
      <trkpt lat="44.81004" lon="1.70346">
        <ele>365.91302490234</ele>
        <time>2021-07-10T07:32:45Z</time>
      </trkpt>
      <trkpt lat="44.8101" lon="1.70337">
        <ele>369.14208984375</ele>
        <time>2021-07-10T07:32:55Z</time>
      </trkpt>
      <trkpt lat="44.81015" lon="1.70327">
        <ele>373.09362792969</ele>
        <time>2021-07-10T07:33:09Z</time>
      </trkpt>
      <trkpt lat="44.81024" lon="1.70329">
        <ele>374.48699951172</ele>
        <time>2021-07-10T07:33:21Z</time>
      </trkpt>
      <trkpt lat="44.8103" lon="1.70323">
        <ele>371.93933105469</ele>
        <time>2021-07-10T07:33:28Z</time>
      </trkpt>
      <trkpt lat="44.81037" lon="1.70317">
        <ele>374.80438232422</ele>
        <time>2021-07-10T07:33:35Z</time>
      </trkpt>
      <trkpt lat="44.81043" lon="1.70312">
        <ele>371.64562988281</ele>
        <time>2021-07-10T07:33:53Z</time>
      </trkpt>
      <trkpt lat="44.81049" lon="1.70305">
        <ele>375.7734375</ele>
        <time>2021-07-10T07:33:59Z</time>
      </trkpt>
      <trkpt lat="44.81054" lon="1.70295">
        <ele>377.74157714844</ele>
        <time>2021-07-10T07:34:08Z</time>
      </trkpt>
      <trkpt lat="44.81061" lon="1.70287">
        <ele>379.06652832031</ele>
        <time>2021-07-10T07:34:16Z</time>
      </trkpt>
      <trkpt lat="44.81058" lon="1.70275">
        <ele>369.45581054688</ele>
        <time>2021-07-10T07:34:34Z</time>
      </trkpt>
      <trkpt lat="44.81059" lon="1.70263">
        <ele>371.19927978516</ele>
        <time>2021-07-10T07:34:45Z</time>
      </trkpt>
      <trkpt lat="44.81063" lon="1.70252">
        <ele>373.59008789062</ele>
        <time>2021-07-10T07:35:09Z</time>
      </trkpt>
      <trkpt lat="44.81068" lon="1.70243">
        <ele>366.55987548828</ele>
        <time>2021-07-10T07:35:21Z</time>
      </trkpt>
      <trkpt lat="44.81075" lon="1.70237">
        <ele>368.52746582031</ele>
        <time>2021-07-10T07:35:28Z</time>
      </trkpt>
      <trkpt lat="44.81083" lon="1.70235">
        <ele>365.57556152344</ele>
        <time>2021-07-10T07:35:37Z</time>
      </trkpt>
      <trkpt lat="44.8109" lon="1.70232">
        <ele>366.65289306641</ele>
        <time>2021-07-10T07:35:43Z</time>
      </trkpt>
      <trkpt lat="44.81097" lon="1.70223">
        <ele>367.11029052734</ele>
        <time>2021-07-10T07:35:49Z</time>
      </trkpt>
      <trkpt lat="44.81103" lon="1.70229">
        <ele>365.43762207031</ele>
        <time>2021-07-10T07:36:02Z</time>
      </trkpt>
      <trkpt lat="44.81111" lon="1.70226">
        <ele>362.25598144531</ele>
        <time>2021-07-10T07:36:07Z</time>
      </trkpt>
      <trkpt lat="44.81119" lon="1.70229">
        <ele>364.30908203125</ele>
        <time>2021-07-10T07:36:17Z</time>
      </trkpt>
      <trkpt lat="44.81126" lon="1.70227">
        <ele>364.71405029297</ele>
        <time>2021-07-10T07:36:24Z</time>
      </trkpt>
      <trkpt lat="44.81134" lon="1.70228">
        <ele>365.75329589844</ele>
        <time>2021-07-10T07:36:46Z</time>
      </trkpt>
      <trkpt lat="44.8114" lon="1.70232">
        <ele>366.29718017578</ele>
        <time>2021-07-10T07:36:53Z</time>
      </trkpt>
      <trkpt lat="44.81147" lon="1.70234">
        <ele>360.39245605469</ele>
        <time>2021-07-10T07:36:59Z</time>
      </trkpt>
      <trkpt lat="44.81153" lon="1.70225">
        <ele>363.90844726562</ele>
        <time>2021-07-10T07:37:04Z</time>
      </trkpt>
      <trkpt lat="44.81157" lon="1.70216">
        <ele>362.4462890625</ele>
        <time>2021-07-10T07:37:11Z</time>
      </trkpt>
      <trkpt lat="44.81163" lon="1.70207">
        <ele>358.07897949219</ele>
        <time>2021-07-10T07:37:29Z</time>
      </trkpt>
      <trkpt lat="44.81172" lon="1.70202">
        <ele>355.70629882812</ele>
        <time>2021-07-10T07:39:17Z</time>
      </trkpt>
      <trkpt lat="44.81169" lon="1.70214">
        <ele>353.59204101562</ele>
        <time>2021-07-10T07:44:11Z</time>
      </trkpt>
      <trkpt lat="44.81164" lon="1.70224">
        <ele>357.2705078125</ele>
        <time>2021-07-10T07:44:26Z</time>
      </trkpt>
      <trkpt lat="44.81155" lon="1.70227">
        <ele>356.8046875</ele>
        <time>2021-07-10T07:44:36Z</time>
      </trkpt>
      <trkpt lat="44.81146" lon="1.70229">
        <ele>361.97485351562</ele>
        <time>2021-07-10T07:44:49Z</time>
      </trkpt>
      <trkpt lat="44.81138" lon="1.70229">
        <ele>362.43408203125</ele>
        <time>2021-07-10T07:45:04Z</time>
      </trkpt>
      <trkpt lat="44.8113" lon="1.70229">
        <ele>363.35559082031</ele>
        <time>2021-07-10T07:45:22Z</time>
      </trkpt>
      <trkpt lat="44.81122" lon="1.70229">
        <ele>364.54272460938</ele>
        <time>2021-07-10T07:45:45Z</time>
      </trkpt>
      <trkpt lat="44.81113" lon="1.70231">
        <ele>362.79528808594</ele>
        <time>2021-07-10T07:45:54Z</time>
      </trkpt>
      <trkpt lat="44.81107" lon="1.70232">
        <ele>363.95306396484</ele>
        <time>2021-07-10T07:46:01Z</time>
      </trkpt>
      <trkpt lat="44.81099" lon="1.70235">
        <ele>363.20135498047</ele>
        <time>2021-07-10T07:46:13Z</time>
      </trkpt>
      <trkpt lat="44.81093" lon="1.7024">
        <ele>360.59033203125</ele>
        <time>2021-07-10T07:46:18Z</time>
      </trkpt>
      <trkpt lat="44.81085" lon="1.70243">
        <ele>360.81396484375</ele>
        <time>2021-07-10T07:46:23Z</time>
      </trkpt>
      <trkpt lat="44.81076" lon="1.70241">
        <ele>362.3095703125</ele>
        <time>2021-07-10T07:46:28Z</time>
      </trkpt>
      <trkpt lat="44.81068" lon="1.70244">
        <ele>365.20153808594</ele>
        <time>2021-07-10T07:46:54Z</time>
      </trkpt>
      <trkpt lat="44.81062" lon="1.70253">
        <ele>368.14184570312</ele>
        <time>2021-07-10T07:47:03Z</time>
      </trkpt>
      <trkpt lat="44.81058" lon="1.70263">
        <ele>366.66918945312</ele>
        <time>2021-07-10T07:47:15Z</time>
      </trkpt>
      <trkpt lat="44.81056" lon="1.70274">
        <ele>366.681640625</ele>
        <time>2021-07-10T07:47:22Z</time>
      </trkpt>
      <trkpt lat="44.8106" lon="1.70285">
        <ele>368.82470703125</ele>
        <time>2021-07-10T07:47:33Z</time>
      </trkpt>
      <trkpt lat="44.81059" lon="1.70297">
        <ele>371.07214355469</ele>
        <time>2021-07-10T07:47:43Z</time>
      </trkpt>
      <trkpt lat="44.81057" lon="1.70308">
        <ele>371.41064453125</ele>
        <time>2021-07-10T07:47:57Z</time>
      </trkpt>
      <trkpt lat="44.81052" lon="1.70318">
        <ele>370.84973144531</ele>
        <time>2021-07-10T07:48:05Z</time>
      </trkpt>
      <trkpt lat="44.81045" lon="1.70323">
        <ele>374.32849121094</ele>
        <time>2021-07-10T07:49:12Z</time>
      </trkpt>
      <trkpt lat="44.81037" lon="1.70327">
        <ele>375.65246582031</ele>
        <time>2021-07-10T07:50:59Z</time>
      </trkpt>
      <trkpt lat="44.8103" lon="1.70327">
        <ele>372.26513671875</ele>
        <time>2021-07-10T07:51:07Z</time>
      </trkpt>
      <trkpt lat="44.81021" lon="1.7033">
        <ele>376.16784667969</ele>
        <time>2021-07-10T07:51:12Z</time>
      </trkpt>
      <trkpt lat="44.81013" lon="1.70334">
        <ele>372.04504394531</ele>
        <time>2021-07-10T07:51:24Z</time>
      </trkpt>
      <trkpt lat="44.81006" lon="1.7034">
        <ele>362.43798828125</ele>
        <time>2021-07-10T07:51:32Z</time>
      </trkpt>
      <trkpt lat="44.81002" lon="1.7035">
        <ele>364.380859375</ele>
        <time>2021-07-10T07:51:43Z</time>
      </trkpt>
      <trkpt lat="44.80996" lon="1.7036">
        <ele>362.95300292969</ele>
        <time>2021-07-10T07:51:53Z</time>
      </trkpt>
      <trkpt lat="44.80991" lon="1.70368">
        <ele>365.31872558594</ele>
        <time>2021-07-10T07:52:01Z</time>
      </trkpt>
      <trkpt lat="44.80986" lon="1.70378">
        <ele>365.04357910156</ele>
        <time>2021-07-10T07:52:14Z</time>
      </trkpt>
      <trkpt lat="44.80986" lon="1.70387">
        <ele>365.00073242188</ele>
        <time>2021-07-10T07:52:23Z</time>
      </trkpt>
      <trkpt lat="44.8099" lon="1.70399">
        <ele>369.74438476562</ele>
        <time>2021-07-10T07:52:32Z</time>
      </trkpt>
      <trkpt lat="44.80993" lon="1.70409">
        <ele>367.21405029297</ele>
        <time>2021-07-10T07:52:43Z</time>
      </trkpt>
      <trkpt lat="44.80996" lon="1.7042">
        <ele>368.36755371094</ele>
        <time>2021-07-10T07:52:53Z</time>
      </trkpt>
      <trkpt lat="44.80995" lon="1.70432">
        <ele>367.25256347656</ele>
        <time>2021-07-10T07:53:02Z</time>
      </trkpt>
      <trkpt lat="44.80998" lon="1.70443">
        <ele>369.72827148438</ele>
        <time>2021-07-10T07:53:10Z</time>
      </trkpt>
      <trkpt lat="44.80998" lon="1.70454">
        <ele>363.16180419922</ele>
        <time>2021-07-10T07:53:18Z</time>
      </trkpt>
      <trkpt lat="44.80996" lon="1.70465">
        <ele>365.38732910156</ele>
        <time>2021-07-10T07:53:25Z</time>
      </trkpt>
      <trkpt lat="44.80993" lon="1.70476">
        <ele>367.09136962891</ele>
        <time>2021-07-10T07:53:33Z</time>
      </trkpt>
      <trkpt lat="44.8099" lon="1.70488">
        <ele>373.84521484375</ele>
        <time>2021-07-10T07:53:49Z</time>
      </trkpt>
      <trkpt lat="44.80987" lon="1.70498">
        <ele>373.42065429688</ele>
        <time>2021-07-10T07:53:56Z</time>
      </trkpt>
      <trkpt lat="44.80979" lon="1.70502">
        <ele>377.36938476562</ele>
        <time>2021-07-10T07:55:16Z</time>
      </trkpt>
      <trkpt lat="44.80978" lon="1.70514">
        <ele>378.07116699219</ele>
        <time>2021-07-10T07:55:29Z</time>
      </trkpt>
      <trkpt lat="44.80973" lon="1.70525">
        <ele>376.73303222656</ele>
        <time>2021-07-10T07:55:43Z</time>
      </trkpt>
      <trkpt lat="44.80969" lon="1.70534">
        <ele>373.77770996094</ele>
        <time>2021-07-10T07:55:55Z</time>
      </trkpt>
      <trkpt lat="44.80965" lon="1.70543">
        <ele>373.30853271484</ele>
        <time>2021-07-10T07:56:04Z</time>
      </trkpt>
      <trkpt lat="44.8096" lon="1.70554">
        <ele>371.80419921875</ele>
        <time>2021-07-10T07:56:12Z</time>
      </trkpt>
      <trkpt lat="44.80954" lon="1.70561">
        <ele>371.15380859375</ele>
        <time>2021-07-10T07:56:21Z</time>
      </trkpt>
      <trkpt lat="44.80948" lon="1.7057">
        <ele>366.31115722656</ele>
        <time>2021-07-10T07:56:29Z</time>
      </trkpt>
      <trkpt lat="44.80949" lon="1.70582">
        <ele>367.42120361328</ele>
        <time>2021-07-10T07:56:38Z</time>
      </trkpt>
      <trkpt lat="44.80945" lon="1.70593">
        <ele>368.62628173828</ele>
        <time>2021-07-10T07:56:46Z</time>
      </trkpt>
      <trkpt lat="44.80942" lon="1.70603">
        <ele>370.33569335938</ele>
        <time>2021-07-10T07:56:57Z</time>
      </trkpt>
      <trkpt lat="44.80942" lon="1.70614">
        <ele>371.8720703125</ele>
        <time>2021-07-10T07:57:03Z</time>
      </trkpt>
      <trkpt lat="44.80939" lon="1.70623">
        <ele>370.08923339844</ele>
        <time>2021-07-10T07:57:11Z</time>
      </trkpt>
      <trkpt lat="44.80935" lon="1.70634">
        <ele>370.49688720703</ele>
        <time>2021-07-10T07:57:21Z</time>
      </trkpt>
      <trkpt lat="44.80937" lon="1.70645">
        <ele>370.10009765625</ele>
        <time>2021-07-10T07:57:29Z</time>
      </trkpt>
      <trkpt lat="44.80939" lon="1.70657">
        <ele>368.25329589844</ele>
        <time>2021-07-10T07:57:37Z</time>
      </trkpt>
      <trkpt lat="44.80944" lon="1.70666">
        <ele>370.13043212891</ele>
        <time>2021-07-10T07:57:47Z</time>
      </trkpt>
      <trkpt lat="44.80952" lon="1.7067">
        <ele>374.20001220703</ele>
        <time>2021-07-10T07:57:56Z</time>
      </trkpt>
      <trkpt lat="44.8096" lon="1.70669">
        <ele>373.61383056641</ele>
        <time>2021-07-10T07:58:03Z</time>
      </trkpt>
      <trkpt lat="44.80968" lon="1.70669">
        <ele>378.87493896484</ele>
        <time>2021-07-10T07:58:10Z</time>
      </trkpt>
      <trkpt lat="44.80975" lon="1.70668">
        <ele>376.83087158203</ele>
        <time>2021-07-10T07:58:29Z</time>
      </trkpt>
      <trkpt lat="44.80983" lon="1.70668">
        <ele>378.81866455078</ele>
        <time>2021-07-10T07:58:35Z</time>
      </trkpt>
      <trkpt lat="44.80992" lon="1.70671">
        <ele>377.78063964844</ele>
        <time>2021-07-10T07:58:41Z</time>
      </trkpt>
      <trkpt lat="44.81" lon="1.70673">
        <ele>379.61614990234</ele>
        <time>2021-07-10T07:58:50Z</time>
      </trkpt>
      <trkpt lat="44.81008" lon="1.7068">
        <ele>378.65185546875</ele>
        <time>2021-07-10T07:58:58Z</time>
      </trkpt>
      <trkpt lat="44.81013" lon="1.70688">
        <ele>381.45123291016</ele>
        <time>2021-07-10T07:59:07Z</time>
      </trkpt>
      <trkpt lat="44.81022" lon="1.7069">
        <ele>377.37939453125</ele>
        <time>2021-07-10T07:59:17Z</time>
      </trkpt>
      <trkpt lat="44.8103" lon="1.70689">
        <ele>374.54907226562</ele>
        <time>2021-07-10T07:59:22Z</time>
      </trkpt>
      <trkpt lat="44.81038" lon="1.70693">
        <ele>375.09265136719</ele>
        <time>2021-07-10T07:59:29Z</time>
      </trkpt>
      <trkpt lat="44.81042" lon="1.707">
        <ele>378.47485351562</ele>
        <time>2021-07-10T07:59:40Z</time>
      </trkpt>
      <trkpt lat="44.81045" lon="1.70712">
        <ele>374.83850097656</ele>
        <time>2021-07-10T07:59:52Z</time>
      </trkpt>
      <trkpt lat="44.81049" lon="1.70722">
        <ele>374.38024902344</ele>
        <time>2021-07-10T08:00:00Z</time>
      </trkpt>
      <trkpt lat="44.81053" lon="1.70731">
        <ele>375.72052001953</ele>
        <time>2021-07-10T08:00:19Z</time>
      </trkpt>
      <trkpt lat="44.81053" lon="1.70742">
        <ele>378.29315185547</ele>
        <time>2021-07-10T08:00:29Z</time>
      </trkpt>
      <trkpt lat="44.81056" lon="1.70747">
        <ele>379.32922363281</ele>
        <time>2021-07-10T08:00:33Z</time>
      </trkpt>
      <trkpt lat="44.8106" lon="1.70756">
        <ele>380.86083984375</ele>
        <time>2021-07-10T08:00:38Z</time>
      </trkpt>
      <trkpt lat="44.81066" lon="1.70765">
        <ele>384.32299804688</ele>
        <time>2021-07-10T08:00:44Z</time>
      </trkpt>
      <trkpt lat="44.81069" lon="1.70773">
        <ele>384.44903564453</ele>
        <time>2021-07-10T08:00:54Z</time>
      </trkpt>
      <trkpt lat="44.81071" lon="1.70785">
        <ele>383.0859375</ele>
        <time>2021-07-10T08:01:03Z</time>
      </trkpt>
      <trkpt lat="44.81073" lon="1.70796">
        <ele>383.92163085938</ele>
        <time>2021-07-10T08:01:11Z</time>
      </trkpt>
      <trkpt lat="44.81075" lon="1.70806">
        <ele>383.6826171875</ele>
        <time>2021-07-10T08:01:20Z</time>
      </trkpt>
      <trkpt lat="44.81074" lon="1.70817">
        <ele>384.79553222656</ele>
        <time>2021-07-10T08:01:27Z</time>
      </trkpt>
      <trkpt lat="44.81078" lon="1.70825">
        <ele>384.90020751953</ele>
        <time>2021-07-10T08:01:33Z</time>
      </trkpt>
      <trkpt lat="44.81081" lon="1.70837">
        <ele>385.74609375</ele>
        <time>2021-07-10T08:01:41Z</time>
      </trkpt>
      <trkpt lat="44.81087" lon="1.70846">
        <ele>385.29614257812</ele>
        <time>2021-07-10T08:01:52Z</time>
      </trkpt>
      <trkpt lat="44.8109" lon="1.70856">
        <ele>384.91235351562</ele>
        <time>2021-07-10T08:01:59Z</time>
      </trkpt>
      <trkpt lat="44.81092" lon="1.70865">
        <ele>387.51934814453</ele>
        <time>2021-07-10T08:02:04Z</time>
      </trkpt>
      <trkpt lat="44.81091" lon="1.70876">
        <ele>385.57360839844</ele>
        <time>2021-07-10T08:02:11Z</time>
      </trkpt>
      <trkpt lat="44.81094" lon="1.70887">
        <ele>384.96350097656</ele>
        <time>2021-07-10T08:02:39Z</time>
      </trkpt>
      <trkpt lat="44.81099" lon="1.70897">
        <ele>380.13793945312</ele>
        <time>2021-07-10T08:02:45Z</time>
      </trkpt>
      <trkpt lat="44.81106" lon="1.70905">
        <ele>387.72668457031</ele>
        <time>2021-07-10T08:02:59Z</time>
      </trkpt>
      <trkpt lat="44.81114" lon="1.70905">
        <ele>389.9111328125</ele>
        <time>2021-07-10T08:03:04Z</time>
      </trkpt>
      <trkpt lat="44.81121" lon="1.70906">
        <ele>385.89343261719</ele>
        <time>2021-07-10T08:03:09Z</time>
      </trkpt>
      <trkpt lat="44.81128" lon="1.7091">
        <ele>388.34301757812</ele>
        <time>2021-07-10T08:03:17Z</time>
      </trkpt>
      <trkpt lat="44.81135" lon="1.70912">
        <ele>390.607421875</ele>
        <time>2021-07-10T08:03:31Z</time>
      </trkpt>
      <trkpt lat="44.81144" lon="1.70915">
        <ele>390.40673828125</ele>
        <time>2021-07-10T08:03:37Z</time>
      </trkpt>
      <trkpt lat="44.81152" lon="1.70919">
        <ele>390.60552978516</ele>
        <time>2021-07-10T08:03:50Z</time>
      </trkpt>
      <trkpt lat="44.8116" lon="1.70919">
        <ele>387.96252441406</ele>
        <time>2021-07-10T08:04:00Z</time>
      </trkpt>
      <trkpt lat="44.81167" lon="1.70923">
        <ele>388.80023193359</ele>
        <time>2021-07-10T08:04:06Z</time>
      </trkpt>
      <trkpt lat="44.81174" lon="1.70928">
        <ele>387.60388183594</ele>
        <time>2021-07-10T08:04:14Z</time>
      </trkpt>
      <trkpt lat="44.81181" lon="1.70926">
        <ele>385.36755371094</ele>
        <time>2021-07-10T08:04:21Z</time>
      </trkpt>
      <trkpt lat="44.81189" lon="1.70932">
        <ele>387.82043457031</ele>
        <time>2021-07-10T08:04:29Z</time>
      </trkpt>
      <trkpt lat="44.81195" lon="1.7094">
        <ele>383.21905517578</ele>
        <time>2021-07-10T08:04:38Z</time>
      </trkpt>
      <trkpt lat="44.81201" lon="1.70939">
        <ele>382.625</ele>
        <time>2021-07-10T08:04:43Z</time>
      </trkpt>
      <trkpt lat="44.81209" lon="1.70935">
        <ele>385.49694824219</ele>
        <time>2021-07-10T08:05:04Z</time>
      </trkpt>
      <trkpt lat="44.81213" lon="1.70931">
        <ele>387.80407714844</ele>
        <time>2021-07-10T08:05:09Z</time>
      </trkpt>
      <trkpt lat="44.81222" lon="1.70931">
        <ele>392.91107177734</ele>
        <time>2021-07-10T08:05:22Z</time>
      </trkpt>
      <trkpt lat="44.81228" lon="1.70924">
        <ele>394.03765869141</ele>
        <time>2021-07-10T08:05:30Z</time>
      </trkpt>
      <trkpt lat="44.81235" lon="1.70918">
        <ele>390.06408691406</ele>
        <time>2021-07-10T08:05:35Z</time>
      </trkpt>
      <trkpt lat="44.81243" lon="1.7092">
        <ele>388.8681640625</ele>
        <time>2021-07-10T08:05:41Z</time>
      </trkpt>
      <trkpt lat="44.81252" lon="1.70919">
        <ele>396.85498046875</ele>
        <time>2021-07-10T08:05:51Z</time>
      </trkpt>
      <trkpt lat="44.8126" lon="1.70915">
        <ele>395.34692382812</ele>
        <time>2021-07-10T08:06:02Z</time>
      </trkpt>
      <trkpt lat="44.81268" lon="1.70911">
        <ele>394.3505859375</ele>
        <time>2021-07-10T08:06:09Z</time>
      </trkpt>
      <trkpt lat="44.81275" lon="1.70916">
        <ele>396.61572265625</ele>
        <time>2021-07-10T08:06:18Z</time>
      </trkpt>
      <trkpt lat="44.81283" lon="1.70916">
        <ele>400.36267089844</ele>
        <time>2021-07-10T08:06:25Z</time>
      </trkpt>
      <trkpt lat="44.81291" lon="1.70915">
        <ele>398.19409179688</ele>
        <time>2021-07-10T08:06:32Z</time>
      </trkpt>
      <trkpt lat="44.813" lon="1.70913">
        <ele>399.42852783203</ele>
        <time>2021-07-10T08:06:43Z</time>
      </trkpt>
      <trkpt lat="44.81308" lon="1.70913">
        <ele>397.45422363281</ele>
        <time>2021-07-10T08:06:50Z</time>
      </trkpt>
      <trkpt lat="44.81314" lon="1.70906">
        <ele>396.89428710938</ele>
        <time>2021-07-10T08:06:56Z</time>
      </trkpt>
      <trkpt lat="44.81322" lon="1.70905">
        <ele>396.61627197266</ele>
        <time>2021-07-10T08:07:03Z</time>
      </trkpt>
      <trkpt lat="44.8133" lon="1.70906">
        <ele>393.57434082031</ele>
        <time>2021-07-10T08:07:13Z</time>
      </trkpt>
      <trkpt lat="44.81338" lon="1.70901">
        <ele>391.24609375</ele>
        <time>2021-07-10T08:07:23Z</time>
      </trkpt>
      <trkpt lat="44.81346" lon="1.70899">
        <ele>395.78527832031</ele>
        <time>2021-07-10T08:07:30Z</time>
      </trkpt>
      <trkpt lat="44.81353" lon="1.70903">
        <ele>389.56030273438</ele>
        <time>2021-07-10T08:07:35Z</time>
      </trkpt>
      <trkpt lat="44.81361" lon="1.70901">
        <ele>392.75268554688</ele>
        <time>2021-07-10T08:07:45Z</time>
      </trkpt>
      <trkpt lat="44.81368" lon="1.70896">
        <ele>394.39147949219</ele>
        <time>2021-07-10T08:07:51Z</time>
      </trkpt>
      <trkpt lat="44.81377" lon="1.70898">
        <ele>393.94519042969</ele>
        <time>2021-07-10T08:07:56Z</time>
      </trkpt>
      <trkpt lat="44.81384" lon="1.70904">
        <ele>395.47216796875</ele>
        <time>2021-07-10T08:08:04Z</time>
      </trkpt>
      <trkpt lat="44.81392" lon="1.70905">
        <ele>392.70288085938</ele>
        <time>2021-07-10T08:08:09Z</time>
      </trkpt>
      <trkpt lat="44.81399" lon="1.70898">
        <ele>396.56585693359</ele>
        <time>2021-07-10T08:08:20Z</time>
      </trkpt>
      <trkpt lat="44.81407" lon="1.70898">
        <ele>399.07580566406</ele>
        <time>2021-07-10T08:08:29Z</time>
      </trkpt>
      <trkpt lat="44.81415" lon="1.70894">
        <ele>401.80688476562</ele>
        <time>2021-07-10T08:08:36Z</time>
      </trkpt>
      <trkpt lat="44.81422" lon="1.70899">
        <ele>403.47094726562</ele>
        <time>2021-07-10T08:08:41Z</time>
      </trkpt>
      <trkpt lat="44.81431" lon="1.70898">
        <ele>401.771484375</ele>
        <time>2021-07-10T08:08:47Z</time>
      </trkpt>
      <trkpt lat="44.81438" lon="1.70891">
        <ele>400.67736816406</ele>
        <time>2021-07-10T08:08:51Z</time>
      </trkpt>
      <trkpt lat="44.81446" lon="1.70887">
        <ele>401.04333496094</ele>
        <time>2021-07-10T08:08:57Z</time>
      </trkpt>
      <trkpt lat="44.81452" lon="1.70894">
        <ele>399.25317382812</ele>
        <time>2021-07-10T08:09:03Z</time>
      </trkpt>
      <trkpt lat="44.8146" lon="1.70898">
        <ele>400.86199951172</ele>
        <time>2021-07-10T08:09:17Z</time>
      </trkpt>
      <trkpt lat="44.81467" lon="1.70896">
        <ele>399.83367919922</ele>
        <time>2021-07-10T08:09:22Z</time>
      </trkpt>
      <trkpt lat="44.81475" lon="1.70894">
        <ele>397.22570800781</ele>
        <time>2021-07-10T08:09:29Z</time>
      </trkpt>
      <trkpt lat="44.81483" lon="1.70894">
        <ele>396.80181884766</ele>
        <time>2021-07-10T08:09:37Z</time>
      </trkpt>
      <trkpt lat="44.81491" lon="1.70892">
        <ele>397.58862304688</ele>
        <time>2021-07-10T08:09:48Z</time>
      </trkpt>
      <trkpt lat="44.81497" lon="1.70885">
        <ele>400.79443359375</ele>
        <time>2021-07-10T08:09:56Z</time>
      </trkpt>
      <trkpt lat="44.81506" lon="1.70886">
        <ele>401.82104492188</ele>
        <time>2021-07-10T08:10:02Z</time>
      </trkpt>
      <trkpt lat="44.81514" lon="1.70888">
        <ele>400.14758300781</ele>
        <time>2021-07-10T08:10:09Z</time>
      </trkpt>
      <trkpt lat="44.81522" lon="1.70882">
        <ele>396.40258789062</ele>
        <time>2021-07-10T08:10:25Z</time>
      </trkpt>
      <trkpt lat="44.8153" lon="1.70879">
        <ele>390.80651855469</ele>
        <time>2021-07-10T08:10:35Z</time>
      </trkpt>
      <trkpt lat="44.81538" lon="1.70879">
        <ele>390.86877441406</ele>
        <time>2021-07-10T08:10:40Z</time>
      </trkpt>
      <trkpt lat="44.81543" lon="1.70874">
        <ele>391.52075195312</ele>
        <time>2021-07-10T08:10:48Z</time>
      </trkpt>
      <trkpt lat="44.81551" lon="1.70871">
        <ele>392.0380859375</ele>
        <time>2021-07-10T08:10:55Z</time>
      </trkpt>
      <trkpt lat="44.8156" lon="1.70871">
        <ele>396.59289550781</ele>
        <time>2021-07-10T08:11:07Z</time>
      </trkpt>
      <trkpt lat="44.81568" lon="1.70867">
        <ele>395.939453125</ele>
        <time>2021-07-10T08:11:16Z</time>
      </trkpt>
      <trkpt lat="44.81577" lon="1.70868">
        <ele>395.02709960938</ele>
        <time>2021-07-10T08:11:27Z</time>
      </trkpt>
      <trkpt lat="44.81585" lon="1.70866">
        <ele>390.46826171875</ele>
        <time>2021-07-10T08:11:41Z</time>
      </trkpt>
      <trkpt lat="44.81593" lon="1.70864">
        <ele>392.66186523438</ele>
        <time>2021-07-10T08:11:45Z</time>
      </trkpt>
      <trkpt lat="44.81599" lon="1.70859">
        <ele>394.43029785156</ele>
        <time>2021-07-10T08:11:49Z</time>
      </trkpt>
      <trkpt lat="44.81605" lon="1.70852">
        <ele>392.86407470703</ele>
        <time>2021-07-10T08:11:54Z</time>
      </trkpt>
      <trkpt lat="44.81614" lon="1.70854">
        <ele>395.75701904297</ele>
        <time>2021-07-10T08:12:06Z</time>
      </trkpt>
      <trkpt lat="44.8162" lon="1.70857">
        <ele>392.82531738281</ele>
        <time>2021-07-10T08:12:14Z</time>
      </trkpt>
      <trkpt lat="44.81628" lon="1.70859">
        <ele>388.38702392578</ele>
        <time>2021-07-10T08:12:20Z</time>
      </trkpt>
      <trkpt lat="44.81634" lon="1.70866">
        <ele>381.84320068359</ele>
        <time>2021-07-10T08:12:29Z</time>
      </trkpt>
      <trkpt lat="44.81639" lon="1.70876">
        <ele>383.87054443359</ele>
        <time>2021-07-10T08:12:36Z</time>
      </trkpt>
      <trkpt lat="44.81644" lon="1.70886">
        <ele>393.27392578125</ele>
        <time>2021-07-10T08:12:52Z</time>
      </trkpt>
      <trkpt lat="44.81642" lon="1.70896">
        <ele>393.94256591797</ele>
        <time>2021-07-10T08:12:57Z</time>
      </trkpt>
      <trkpt lat="44.81641" lon="1.70908">
        <ele>392.42407226562</ele>
        <time>2021-07-10T08:13:04Z</time>
      </trkpt>
      <trkpt lat="44.81635" lon="1.70916">
        <ele>397.90197753906</ele>
        <time>2021-07-10T08:13:12Z</time>
      </trkpt>
      <trkpt lat="44.8163" lon="1.70925">
        <ele>397.93249511719</ele>
        <time>2021-07-10T08:13:22Z</time>
      </trkpt>
      <trkpt lat="44.81623" lon="1.70932">
        <ele>396.16369628906</ele>
        <time>2021-07-10T08:13:32Z</time>
      </trkpt>
      <trkpt lat="44.81616" lon="1.70936">
        <ele>396.96783447266</ele>
        <time>2021-07-10T08:13:39Z</time>
      </trkpt>
      <trkpt lat="44.81609" lon="1.70942">
        <ele>397.24230957031</ele>
        <time>2021-07-10T08:13:52Z</time>
      </trkpt>
      <trkpt lat="44.81603" lon="1.70951">
        <ele>396.22686767578</ele>
        <time>2021-07-10T08:14:00Z</time>
      </trkpt>
      <trkpt lat="44.81594" lon="1.70952">
        <ele>397.94342041016</ele>
        <time>2021-07-10T08:14:21Z</time>
      </trkpt>
      <trkpt lat="44.81592" lon="1.70964">
        <ele>400.14208984375</ele>
        <time>2021-07-10T08:15:02Z</time>
      </trkpt>
      <trkpt lat="44.8159" lon="1.70974">
        <ele>400.59399414062</ele>
        <time>2021-07-10T08:15:23Z</time>
      </trkpt>
      <trkpt lat="44.81585" lon="1.70984">
        <ele>403.6318359375</ele>
        <time>2021-07-10T08:15:32Z</time>
      </trkpt>
      <trkpt lat="44.81582" lon="1.70996">
        <ele>401.37139892578</ele>
        <time>2021-07-10T08:15:40Z</time>
      </trkpt>
      <trkpt lat="44.81586" lon="1.71006">
        <ele>404.98828125</ele>
        <time>2021-07-10T08:15:52Z</time>
      </trkpt>
      <trkpt lat="44.81589" lon="1.71017">
        <ele>413.22290039062</ele>
        <time>2021-07-10T08:16:02Z</time>
      </trkpt>
      <trkpt lat="44.81594" lon="1.71028">
        <ele>408.03857421875</ele>
        <time>2021-07-10T08:16:11Z</time>
      </trkpt>
      <trkpt lat="44.81594" lon="1.71039">
        <ele>408.94189453125</ele>
        <time>2021-07-10T08:16:22Z</time>
      </trkpt>
      <trkpt lat="44.81598" lon="1.71049">
        <ele>408.29968261719</ele>
        <time>2021-07-10T08:16:33Z</time>
      </trkpt>
      <trkpt lat="44.81602" lon="1.71057">
        <ele>411.23132324219</ele>
        <time>2021-07-10T08:16:42Z</time>
      </trkpt>
      <trkpt lat="44.81608" lon="1.71068">
        <ele>405.94403076172</ele>
        <time>2021-07-10T08:16:55Z</time>
      </trkpt>
      <trkpt lat="44.81614" lon="1.71076">
        <ele>403.50952148438</ele>
        <time>2021-07-10T08:17:30Z</time>
      </trkpt>
      <trkpt lat="44.8162" lon="1.71085">
        <ele>410.55590820312</ele>
        <time>2021-07-10T08:19:36Z</time>
      </trkpt>
      <trkpt lat="44.81614" lon="1.71078">
        <ele>409.96667480469</ele>
        <time>2021-07-10T08:20:22Z</time>
      </trkpt>
      <trkpt lat="44.81622" lon="1.71074">
        <ele>409.39276123047</ele>
        <time>2021-07-10T08:22:50Z</time>
      </trkpt>
      <trkpt lat="44.81622" lon="1.71079">
        <ele>411.37060546875</ele>
        <time>2021-07-10T08:23:46Z</time>
      </trkpt>
      <trkpt lat="44.81623" lon="1.711">
        <ele>407.79833984375</ele>
        <time>2021-07-10T08:23:51Z</time>
      </trkpt>
      <trkpt lat="44.81624" lon="1.71112">
        <ele>410.20068359375</ele>
        <time>2021-07-10T08:24:00Z</time>
      </trkpt>
      <trkpt lat="44.81629" lon="1.71122">
        <ele>414.92944335938</ele>
        <time>2021-07-10T08:24:10Z</time>
      </trkpt>
      <trkpt lat="44.81635" lon="1.71114">
        <ele>423.06213378906</ele>
        <time>2021-07-10T08:24:34Z</time>
      </trkpt>
      <trkpt lat="44.81643" lon="1.71112">
        <ele>416.10327148438</ele>
        <time>2021-07-10T08:24:50Z</time>
      </trkpt>
      <trkpt lat="44.81648" lon="1.71119">
        <ele>407.14904785156</ele>
        <time>2021-07-10T08:24:54Z</time>
      </trkpt>
      <trkpt lat="44.81656" lon="1.71114">
        <ele>413.21948242188</ele>
        <time>2021-07-10T08:25:10Z</time>
      </trkpt>
      <trkpt lat="44.81664" lon="1.71119">
        <ele>416.90319824219</ele>
        <time>2021-07-10T08:25:28Z</time>
      </trkpt>
      <trkpt lat="44.81672" lon="1.71122">
        <ele>420.03833007812</ele>
        <time>2021-07-10T08:25:38Z</time>
      </trkpt>
      <trkpt lat="44.8168" lon="1.71125">
        <ele>421.537109375</ele>
        <time>2021-07-10T08:25:43Z</time>
      </trkpt>
      <trkpt lat="44.81688" lon="1.71126">
        <ele>427.23809814453</ele>
        <time>2021-07-10T08:26:00Z</time>
      </trkpt>
      <trkpt lat="44.81696" lon="1.71131">
        <ele>426.01049804688</ele>
        <time>2021-07-10T08:26:08Z</time>
      </trkpt>
      <trkpt lat="44.81704" lon="1.71133">
        <ele>427.28552246094</ele>
        <time>2021-07-10T08:26:17Z</time>
      </trkpt>
      <trkpt lat="44.81712" lon="1.71133">
        <ele>428.88897705078</ele>
        <time>2021-07-10T08:26:24Z</time>
      </trkpt>
      <trkpt lat="44.81719" lon="1.71138">
        <ele>427.77734375</ele>
        <time>2021-07-10T08:26:38Z</time>
      </trkpt>
      <trkpt lat="44.81725" lon="1.71143">
        <ele>424.27697753906</ele>
        <time>2021-07-10T08:26:45Z</time>
      </trkpt>
      <trkpt lat="44.81733" lon="1.71144">
        <ele>426.74517822266</ele>
        <time>2021-07-10T08:26:53Z</time>
      </trkpt>
      <trkpt lat="44.81739" lon="1.7115">
        <ele>426.52496337891</ele>
        <time>2021-07-10T08:26:59Z</time>
      </trkpt>
      <trkpt lat="44.81747" lon="1.71152">
        <ele>428.36962890625</ele>
        <time>2021-07-10T08:27:22Z</time>
      </trkpt>
      <trkpt lat="44.81752" lon="1.71143">
        <ele>428.02868652344</ele>
        <time>2021-07-10T08:27:28Z</time>
      </trkpt>
      <trkpt lat="44.81754" lon="1.71133">
        <ele>426.35485839844</ele>
        <time>2021-07-10T08:27:35Z</time>
      </trkpt>
      <trkpt lat="44.81756" lon="1.71122">
        <ele>428.25225830078</ele>
        <time>2021-07-10T08:27:43Z</time>
      </trkpt>
      <trkpt lat="44.8176" lon="1.71111">
        <ele>433.36932373047</ele>
        <time>2021-07-10T08:27:52Z</time>
      </trkpt>
      <trkpt lat="44.81766" lon="1.71107">
        <ele>432.78698730469</ele>
        <time>2021-07-10T08:28:01Z</time>
      </trkpt>
      <trkpt lat="44.81773" lon="1.71102">
        <ele>431.61047363281</ele>
        <time>2021-07-10T08:28:06Z</time>
      </trkpt>
      <trkpt lat="44.81781" lon="1.71101">
        <ele>437.87707519531</ele>
        <time>2021-07-10T08:28:12Z</time>
      </trkpt>
      <trkpt lat="44.81789" lon="1.71105">
        <ele>437.11657714844</ele>
        <time>2021-07-10T08:28:18Z</time>
      </trkpt>
      <trkpt lat="44.81797" lon="1.71107">
        <ele>434.66314697266</ele>
        <time>2021-07-10T08:28:30Z</time>
      </trkpt>
      <trkpt lat="44.81805" lon="1.71108">
        <ele>436.56103515625</ele>
        <time>2021-07-10T08:28:53Z</time>
      </trkpt>
      <trkpt lat="44.81813" lon="1.71109">
        <ele>435.17395019531</ele>
        <time>2021-07-10T08:28:58Z</time>
      </trkpt>
      <trkpt lat="44.81821" lon="1.71111">
        <ele>437.29760742188</ele>
        <time>2021-07-10T08:29:06Z</time>
      </trkpt>
      <trkpt lat="44.81829" lon="1.71114">
        <ele>438.22497558594</ele>
        <time>2021-07-10T08:29:15Z</time>
      </trkpt>
      <trkpt lat="44.81837" lon="1.71115">
        <ele>438.93231201172</ele>
        <time>2021-07-10T08:29:21Z</time>
      </trkpt>
      <trkpt lat="44.81844" lon="1.71119">
        <ele>440.10656738281</ele>
        <time>2021-07-10T08:29:33Z</time>
      </trkpt>
      <trkpt lat="44.8185" lon="1.71128">
        <ele>438.12158203125</ele>
        <time>2021-07-10T08:29:43Z</time>
      </trkpt>
      <trkpt lat="44.81858" lon="1.7113">
        <ele>437.56597900391</ele>
        <time>2021-07-10T08:29:47Z</time>
      </trkpt>
      <trkpt lat="44.81866" lon="1.71132">
        <ele>441.15222167969</ele>
        <time>2021-07-10T08:30:01Z</time>
      </trkpt>
      <trkpt lat="44.81874" lon="1.71134">
        <ele>442.115234375</ele>
        <time>2021-07-10T08:30:08Z</time>
      </trkpt>
      <trkpt lat="44.81882" lon="1.71137">
        <ele>439.99145507812</ele>
        <time>2021-07-10T08:30:13Z</time>
      </trkpt>
      <trkpt lat="44.8189" lon="1.71139">
        <ele>441.67565917969</ele>
        <time>2021-07-10T08:30:20Z</time>
      </trkpt>
      <trkpt lat="44.81898" lon="1.71139">
        <ele>443.32214355469</ele>
        <time>2021-07-10T08:30:29Z</time>
      </trkpt>
      <trkpt lat="44.81906" lon="1.71144">
        <ele>437.81384277344</ele>
        <time>2021-07-10T08:30:37Z</time>
      </trkpt>
      <trkpt lat="44.81914" lon="1.71148">
        <ele>440.89361572266</ele>
        <time>2021-07-10T08:30:49Z</time>
      </trkpt>
      <trkpt lat="44.81923" lon="1.71147">
        <ele>442.18200683594</ele>
        <time>2021-07-10T08:31:00Z</time>
      </trkpt>
      <trkpt lat="44.81931" lon="1.71146">
        <ele>445.66015625</ele>
        <time>2021-07-10T08:31:06Z</time>
      </trkpt>
      <trkpt lat="44.8194" lon="1.71149">
        <ele>445.87084960938</ele>
        <time>2021-07-10T08:31:14Z</time>
      </trkpt>
      <trkpt lat="44.81949" lon="1.71149">
        <ele>445.07543945312</ele>
        <time>2021-07-10T08:31:25Z</time>
      </trkpt>
      <trkpt lat="44.81957" lon="1.7115">
        <ele>448.57867431641</ele>
        <time>2021-07-10T08:31:36Z</time>
      </trkpt>
      <trkpt lat="44.81965" lon="1.71149">
        <ele>448.39855957031</ele>
        <time>2021-07-10T08:31:42Z</time>
      </trkpt>
      <trkpt lat="44.81973" lon="1.71155">
        <ele>450.58874511719</ele>
        <time>2021-07-10T08:31:48Z</time>
      </trkpt>
      <trkpt lat="44.81982" lon="1.71155">
        <ele>450.78491210938</ele>
        <time>2021-07-10T08:31:57Z</time>
      </trkpt>
      <trkpt lat="44.8199" lon="1.71156">
        <ele>454.2236328125</ele>
        <time>2021-07-10T08:32:09Z</time>
      </trkpt>
      <trkpt lat="44.81998" lon="1.71159">
        <ele>448.55700683594</ele>
        <time>2021-07-10T08:32:16Z</time>
      </trkpt>
      <trkpt lat="44.82007" lon="1.71159">
        <ele>446.25646972656</ele>
        <time>2021-07-10T08:32:26Z</time>
      </trkpt>
      <trkpt lat="44.82015" lon="1.71154">
        <ele>446.55065917969</ele>
        <time>2021-07-10T08:32:48Z</time>
      </trkpt>
      <trkpt lat="44.82023" lon="1.71159">
        <ele>443.42138671875</ele>
        <time>2021-07-10T08:32:57Z</time>
      </trkpt>
      <trkpt lat="44.82032" lon="1.71157">
        <ele>447.18823242188</ele>
        <time>2021-07-10T08:33:08Z</time>
      </trkpt>
      <trkpt lat="44.82039" lon="1.71158">
        <ele>451.19274902344</ele>
        <time>2021-07-10T08:33:15Z</time>
      </trkpt>
      <trkpt lat="44.82049" lon="1.7116">
        <ele>449.67358398438</ele>
        <time>2021-07-10T08:33:19Z</time>
      </trkpt>
      <trkpt lat="44.82058" lon="1.71161">
        <ele>450.94567871094</ele>
        <time>2021-07-10T08:33:25Z</time>
      </trkpt>
      <trkpt lat="44.82067" lon="1.71166">
        <ele>452.60876464844</ele>
        <time>2021-07-10T08:33:35Z</time>
      </trkpt>
      <trkpt lat="44.82075" lon="1.71164">
        <ele>453.04675292969</ele>
        <time>2021-07-10T08:33:45Z</time>
      </trkpt>
      <trkpt lat="44.82083" lon="1.71164">
        <ele>453.34606933594</ele>
        <time>2021-07-10T08:33:54Z</time>
      </trkpt>
      <trkpt lat="44.82091" lon="1.71167">
        <ele>450.44342041016</ele>
        <time>2021-07-10T08:34:00Z</time>
      </trkpt>
      <trkpt lat="44.821" lon="1.7117">
        <ele>450.17816162109</ele>
        <time>2021-07-10T08:34:14Z</time>
      </trkpt>
      <trkpt lat="44.82108" lon="1.71172">
        <ele>451.19189453125</ele>
        <time>2021-07-10T08:34:24Z</time>
      </trkpt>
      <trkpt lat="44.82114" lon="1.71173">
        <ele>448.27331542969</ele>
        <time>2021-07-10T08:34:30Z</time>
      </trkpt>
      <trkpt lat="44.82122" lon="1.71175">
        <ele>450.50109863281</ele>
        <time>2021-07-10T08:34:36Z</time>
      </trkpt>
      <trkpt lat="44.82128" lon="1.71168">
        <ele>456.60302734375</ele>
        <time>2021-07-10T08:34:45Z</time>
      </trkpt>
      <trkpt lat="44.82136" lon="1.71164">
        <ele>459.96643066406</ele>
        <time>2021-07-10T08:34:52Z</time>
      </trkpt>
      <trkpt lat="44.82145" lon="1.7116">
        <ele>455.02856445312</ele>
        <time>2021-07-10T08:35:01Z</time>
      </trkpt>
      <trkpt lat="44.82153" lon="1.71159">
        <ele>456.451171875</ele>
        <time>2021-07-10T08:35:12Z</time>
      </trkpt>
      <trkpt lat="44.82161" lon="1.71158">
        <ele>460.13940429688</ele>
        <time>2021-07-10T08:35:24Z</time>
      </trkpt>
      <trkpt lat="44.82167" lon="1.7115">
        <ele>456.791015625</ele>
        <time>2021-07-10T08:35:31Z</time>
      </trkpt>
      <trkpt lat="44.82176" lon="1.71148">
        <ele>461.87145996094</ele>
        <time>2021-07-10T08:35:42Z</time>
      </trkpt>
      <trkpt lat="44.82184" lon="1.71153">
        <ele>465.41888427734</ele>
        <time>2021-07-10T08:35:51Z</time>
      </trkpt>
      <trkpt lat="44.82185" lon="1.71165">
        <ele>462.95629882812</ele>
        <time>2021-07-10T08:36:01Z</time>
      </trkpt>
      <trkpt lat="44.82183" lon="1.71177">
        <ele>470.79895019531</ele>
        <time>2021-07-10T08:38:27Z</time>
      </trkpt>
      <trkpt lat="44.82185" lon="1.71189">
        <ele>461.73919677734</ele>
        <time>2021-07-10T08:41:48Z</time>
      </trkpt>
      <trkpt lat="44.82185" lon="1.71201">
        <ele>464.08050537109</ele>
        <time>2021-07-10T08:42:00Z</time>
      </trkpt>
      <trkpt lat="44.82182" lon="1.71213">
        <ele>465.80743408203</ele>
        <time>2021-07-10T08:42:08Z</time>
      </trkpt>
      <trkpt lat="44.82182" lon="1.71225">
        <ele>463.63146972656</ele>
        <time>2021-07-10T08:42:19Z</time>
      </trkpt>
      <trkpt lat="44.82178" lon="1.71235">
        <ele>460.92504882812</ele>
        <time>2021-07-10T08:42:29Z</time>
      </trkpt>
      <trkpt lat="44.82176" lon="1.71246">
        <ele>462.38494873047</ele>
        <time>2021-07-10T08:42:38Z</time>
      </trkpt>
      <trkpt lat="44.82178" lon="1.71258">
        <ele>464.30535888672</ele>
        <time>2021-07-10T08:42:46Z</time>
      </trkpt>
      <trkpt lat="44.82175" lon="1.71269">
        <ele>462.84045410156</ele>
        <time>2021-07-10T08:42:56Z</time>
      </trkpt>
      <trkpt lat="44.82174" lon="1.71282">
        <ele>464.79187011719</ele>
        <time>2021-07-10T08:43:07Z</time>
      </trkpt>
      <trkpt lat="44.82173" lon="1.71294">
        <ele>464.03247070312</ele>
        <time>2021-07-10T08:43:17Z</time>
      </trkpt>
      <trkpt lat="44.8217" lon="1.71305">
        <ele>461.96630859375</ele>
        <time>2021-07-10T08:43:28Z</time>
      </trkpt>
      <trkpt lat="44.82166" lon="1.71315">
        <ele>463.13842773438</ele>
        <time>2021-07-10T08:43:37Z</time>
      </trkpt>
      <trkpt lat="44.8216" lon="1.71325">
        <ele>462.43347167969</ele>
        <time>2021-07-10T08:43:45Z</time>
      </trkpt>
      <trkpt lat="44.82157" lon="1.71336">
        <ele>465.47937011719</ele>
        <time>2021-07-10T08:43:58Z</time>
      </trkpt>
      <trkpt lat="44.82158" lon="1.71347">
        <ele>467.521484375</ele>
        <time>2021-07-10T08:44:10Z</time>
      </trkpt>
      <trkpt lat="44.82155" lon="1.71357">
        <ele>469.16046142578</ele>
        <time>2021-07-10T08:44:21Z</time>
      </trkpt>
      <trkpt lat="44.82154" lon="1.71369">
        <ele>467.86010742188</ele>
        <time>2021-07-10T08:44:28Z</time>
      </trkpt>
      <trkpt lat="44.82154" lon="1.71381">
        <ele>468.62316894531</ele>
        <time>2021-07-10T08:44:39Z</time>
      </trkpt>
      <trkpt lat="44.82149" lon="1.7139">
        <ele>461.01348876953</ele>
        <time>2021-07-10T08:44:57Z</time>
      </trkpt>
      <trkpt lat="44.82144" lon="1.714">
        <ele>459.71051025391</ele>
        <time>2021-07-10T08:45:36Z</time>
      </trkpt>
      <trkpt lat="44.8214" lon="1.7141">
        <ele>462.5048828125</ele>
        <time>2021-07-10T08:45:44Z</time>
      </trkpt>
      <trkpt lat="44.82133" lon="1.71418">
        <ele>457.94372558594</ele>
        <time>2021-07-10T08:45:53Z</time>
      </trkpt>
      <trkpt lat="44.8213" lon="1.71429">
        <ele>459.1884765625</ele>
        <time>2021-07-10T08:46:06Z</time>
      </trkpt>
      <trkpt lat="44.82123" lon="1.71437">
        <ele>460.88745117188</ele>
        <time>2021-07-10T08:46:27Z</time>
      </trkpt>
      <trkpt lat="44.82119" lon="1.71446">
        <ele>458.19201660156</ele>
        <time>2021-07-10T08:46:32Z</time>
      </trkpt>
      <trkpt lat="44.82119" lon="1.71455">
        <ele>456.86987304688</ele>
        <time>2021-07-10T08:46:41Z</time>
      </trkpt>
      <trkpt lat="44.82118" lon="1.71466">
        <ele>461.41491699219</ele>
        <time>2021-07-10T08:46:47Z</time>
      </trkpt>
      <trkpt lat="44.82111" lon="1.71474">
        <ele>460.84014892578</ele>
        <time>2021-07-10T08:46:55Z</time>
      </trkpt>
      <trkpt lat="44.82106" lon="1.71483">
        <ele>463.63989257812</ele>
        <time>2021-07-10T08:47:03Z</time>
      </trkpt>
      <trkpt lat="44.821" lon="1.71491">
        <ele>465.46539306641</ele>
        <time>2021-07-10T08:47:13Z</time>
      </trkpt>
      <trkpt lat="44.82092" lon="1.71497">
        <ele>462.62182617188</ele>
        <time>2021-07-10T08:47:24Z</time>
      </trkpt>
      <trkpt lat="44.82085" lon="1.71498">
        <ele>464.349609375</ele>
        <time>2021-07-10T08:47:30Z</time>
      </trkpt>
      <trkpt lat="44.82078" lon="1.715">
        <ele>464.16186523438</ele>
        <time>2021-07-10T08:47:36Z</time>
      </trkpt>
      <trkpt lat="44.8207" lon="1.71501">
        <ele>461.23583984375</ele>
        <time>2021-07-10T08:47:42Z</time>
      </trkpt>
      <trkpt lat="44.82062" lon="1.71497">
        <ele>459.38684082031</ele>
        <time>2021-07-10T08:47:50Z</time>
      </trkpt>
      <trkpt lat="44.82054" lon="1.71499">
        <ele>456.82104492188</ele>
        <time>2021-07-10T08:47:59Z</time>
      </trkpt>
      <trkpt lat="44.82048" lon="1.7149">
        <ele>449.80541992188</ele>
        <time>2021-07-10T08:48:08Z</time>
      </trkpt>
      <trkpt lat="44.8204" lon="1.71491">
        <ele>451.54699707031</ele>
        <time>2021-07-10T08:48:24Z</time>
      </trkpt>
      <trkpt lat="44.82032" lon="1.71497">
        <ele>453.49737548828</ele>
        <time>2021-07-10T08:48:33Z</time>
      </trkpt>
      <trkpt lat="44.82023" lon="1.71498">
        <ele>453.69299316406</ele>
        <time>2021-07-10T08:48:41Z</time>
      </trkpt>
      <trkpt lat="44.82016" lon="1.71497">
        <ele>449.91882324219</ele>
        <time>2021-07-10T08:48:58Z</time>
      </trkpt>
      <trkpt lat="44.82007" lon="1.71499">
        <ele>452.49371337891</ele>
        <time>2021-07-10T08:49:05Z</time>
      </trkpt>
      <trkpt lat="44.81998" lon="1.71501">
        <ele>451.56555175781</ele>
        <time>2021-07-10T08:49:16Z</time>
      </trkpt>
      <trkpt lat="44.81989" lon="1.71499">
        <ele>452.35418701172</ele>
        <time>2021-07-10T08:49:24Z</time>
      </trkpt>
      <trkpt lat="44.81981" lon="1.71497">
        <ele>450.513671875</ele>
        <time>2021-07-10T08:49:33Z</time>
      </trkpt>
      <trkpt lat="44.81973" lon="1.71496">
        <ele>448.32843017578</ele>
        <time>2021-07-10T08:49:40Z</time>
      </trkpt>
      <trkpt lat="44.81965" lon="1.71497">
        <ele>451.36315917969</ele>
        <time>2021-07-10T08:49:48Z</time>
      </trkpt>
      <trkpt lat="44.81958" lon="1.71501">
        <ele>451.46520996094</ele>
        <time>2021-07-10T08:49:54Z</time>
      </trkpt>
      <trkpt lat="44.8195" lon="1.71498">
        <ele>455.09582519531</ele>
        <time>2021-07-10T08:50:04Z</time>
      </trkpt>
      <trkpt lat="44.81943" lon="1.71503">
        <ele>455.18548583984</ele>
        <time>2021-07-10T08:50:10Z</time>
      </trkpt>
      <trkpt lat="44.81934" lon="1.71505">
        <ele>456.89831542969</ele>
        <time>2021-07-10T08:50:20Z</time>
      </trkpt>
      <trkpt lat="44.81926" lon="1.71505">
        <ele>455.40997314453</ele>
        <time>2021-07-10T08:50:28Z</time>
      </trkpt>
      <trkpt lat="44.81917" lon="1.71505">
        <ele>454.86608886719</ele>
        <time>2021-07-10T08:50:38Z</time>
      </trkpt>
      <trkpt lat="44.81909" lon="1.71504">
        <ele>452.88000488281</ele>
        <time>2021-07-10T08:50:43Z</time>
      </trkpt>
      <trkpt lat="44.81901" lon="1.71503">
        <ele>449.44366455078</ele>
        <time>2021-07-10T08:50:52Z</time>
      </trkpt>
      <trkpt lat="44.81893" lon="1.71508">
        <ele>449.74206542969</ele>
        <time>2021-07-10T08:50:58Z</time>
      </trkpt>
      <trkpt lat="44.81885" lon="1.7151">
        <ele>453.2431640625</ele>
        <time>2021-07-10T08:51:05Z</time>
      </trkpt>
      <trkpt lat="44.81877" lon="1.71508">
        <ele>437.4775390625</ele>
        <time>2021-07-10T08:51:17Z</time>
      </trkpt>
      <trkpt lat="44.81871" lon="1.71508">
        <ele>437.32861328125</ele>
        <time>2021-07-10T08:51:24Z</time>
      </trkpt>
      <trkpt lat="44.81863" lon="1.71507">
        <ele>437.91589355469</ele>
        <time>2021-07-10T08:51:29Z</time>
      </trkpt>
      <trkpt lat="44.81856" lon="1.71504">
        <ele>438.76647949219</ele>
        <time>2021-07-10T08:51:36Z</time>
      </trkpt>
      <trkpt lat="44.81847" lon="1.71501">
        <ele>441.59234619141</ele>
        <time>2021-07-10T08:51:45Z</time>
      </trkpt>
      <trkpt lat="44.81843" lon="1.71505">
        <ele>444.7919921875</ele>
        <time>2021-07-10T08:51:53Z</time>
      </trkpt>
      <trkpt lat="44.81837" lon="1.71507">
        <ele>447.13684082031</ele>
        <time>2021-07-10T08:51:57Z</time>
      </trkpt>
      <trkpt lat="44.81828" lon="1.71511">
        <ele>448.21655273438</ele>
        <time>2021-07-10T08:52:02Z</time>
      </trkpt>
      <trkpt lat="44.81821" lon="1.71511">
        <ele>447.36083984375</ele>
        <time>2021-07-10T08:52:11Z</time>
      </trkpt>
      <trkpt lat="44.81812" lon="1.71514">
        <ele>447.66967773438</ele>
        <time>2021-07-10T08:52:16Z</time>
      </trkpt>
      <trkpt lat="44.81805" lon="1.71516">
        <ele>446.10754394531</ele>
        <time>2021-07-10T08:52:22Z</time>
      </trkpt>
      <trkpt lat="44.81796" lon="1.71518">
        <ele>446.41296386719</ele>
        <time>2021-07-10T08:52:27Z</time>
      </trkpt>
      <trkpt lat="44.81788" lon="1.7152">
        <ele>443.67523193359</ele>
        <time>2021-07-10T08:52:36Z</time>
      </trkpt>
      <trkpt lat="44.8178" lon="1.71524">
        <ele>437.72985839844</ele>
        <time>2021-07-10T08:52:48Z</time>
      </trkpt>
      <trkpt lat="44.81772" lon="1.71524">
        <ele>440.78308105469</ele>
        <time>2021-07-10T08:52:56Z</time>
      </trkpt>
      <trkpt lat="44.81767" lon="1.71521">
        <ele>441.62683105469</ele>
        <time>2021-07-10T08:53:01Z</time>
      </trkpt>
      <trkpt lat="44.81757" lon="1.71521">
        <ele>443.51513671875</ele>
        <time>2021-07-10T08:53:06Z</time>
      </trkpt>
      <trkpt lat="44.8175" lon="1.71525">
        <ele>443.90222167969</ele>
        <time>2021-07-10T08:53:13Z</time>
      </trkpt>
      <trkpt lat="44.81741" lon="1.71526">
        <ele>438.67590332031</ele>
        <time>2021-07-10T08:53:20Z</time>
      </trkpt>
      <trkpt lat="44.81733" lon="1.7153">
        <ele>442.35900878906</ele>
        <time>2021-07-10T08:53:30Z</time>
      </trkpt>
      <trkpt lat="44.81725" lon="1.71527">
        <ele>439.28399658203</ele>
        <time>2021-07-10T08:53:50Z</time>
      </trkpt>
      <trkpt lat="44.81716" lon="1.71525">
        <ele>435.78259277344</ele>
        <time>2021-07-10T08:54:00Z</time>
      </trkpt>
      <trkpt lat="44.81708" lon="1.71526">
        <ele>433.2451171875</ele>
        <time>2021-07-10T08:54:08Z</time>
      </trkpt>
      <trkpt lat="44.817" lon="1.71527">
        <ele>437.9130859375</ele>
        <time>2021-07-10T08:54:15Z</time>
      </trkpt>
      <trkpt lat="44.81691" lon="1.71529">
        <ele>435.01379394531</ele>
        <time>2021-07-10T08:54:21Z</time>
      </trkpt>
      <trkpt lat="44.81685" lon="1.71528">
        <ele>429.63098144531</ele>
        <time>2021-07-10T08:54:37Z</time>
      </trkpt>
      <trkpt lat="44.81677" lon="1.71526">
        <ele>429.6005859375</ele>
        <time>2021-07-10T08:54:42Z</time>
      </trkpt>
      <trkpt lat="44.81669" lon="1.71528">
        <ele>431.04754638672</ele>
        <time>2021-07-10T08:54:47Z</time>
      </trkpt>
      <trkpt lat="44.81661" lon="1.71523">
        <ele>430.25061035156</ele>
        <time>2021-07-10T08:54:52Z</time>
      </trkpt>
      <trkpt lat="44.81655" lon="1.7152">
        <ele>430.34918212891</ele>
        <time>2021-07-10T08:54:57Z</time>
      </trkpt>
      <trkpt lat="44.81648" lon="1.71513">
        <ele>431.90045166016</ele>
        <time>2021-07-10T08:55:03Z</time>
      </trkpt>
      <trkpt lat="44.81641" lon="1.7151">
        <ele>430.9423828125</ele>
        <time>2021-07-10T08:55:09Z</time>
      </trkpt>
      <trkpt lat="44.81633" lon="1.71508">
        <ele>432.267578125</ele>
        <time>2021-07-10T08:55:15Z</time>
      </trkpt>
      <trkpt lat="44.81625" lon="1.71509">
        <ele>428.56335449219</ele>
        <time>2021-07-10T08:55:23Z</time>
      </trkpt>
      <trkpt lat="44.81618" lon="1.71506">
        <ele>429.26800537109</ele>
        <time>2021-07-10T08:55:28Z</time>
      </trkpt>
      <trkpt lat="44.8161" lon="1.71504">
        <ele>431.93505859375</ele>
        <time>2021-07-10T08:55:33Z</time>
      </trkpt>
      <trkpt lat="44.81602" lon="1.71507">
        <ele>431.31066894531</ele>
        <time>2021-07-10T08:55:40Z</time>
      </trkpt>
      <trkpt lat="44.81594" lon="1.71503">
        <ele>431.98193359375</ele>
        <time>2021-07-10T08:55:48Z</time>
      </trkpt>
      <trkpt lat="44.81586" lon="1.715">
        <ele>429.43676757812</ele>
        <time>2021-07-10T08:55:56Z</time>
      </trkpt>
      <trkpt lat="44.81578" lon="1.71502">
        <ele>433.07934570312</ele>
        <time>2021-07-10T08:56:01Z</time>
      </trkpt>
      <trkpt lat="44.8157" lon="1.71499">
        <ele>434.00170898438</ele>
        <time>2021-07-10T08:56:12Z</time>
      </trkpt>
      <trkpt lat="44.81563" lon="1.71493">
        <ele>431.40795898438</ele>
        <time>2021-07-10T08:56:19Z</time>
      </trkpt>
      <trkpt lat="44.81555" lon="1.71491">
        <ele>432.130859375</ele>
        <time>2021-07-10T08:56:27Z</time>
      </trkpt>
      <trkpt lat="44.81547" lon="1.71492">
        <ele>427.30261230469</ele>
        <time>2021-07-10T08:56:34Z</time>
      </trkpt>
      <trkpt lat="44.81538" lon="1.7149">
        <ele>427.76293945312</ele>
        <time>2021-07-10T08:56:40Z</time>
      </trkpt>
      <trkpt lat="44.8153" lon="1.71489">
        <ele>430.69165039062</ele>
        <time>2021-07-10T08:56:46Z</time>
      </trkpt>
      <trkpt lat="44.81522" lon="1.71488">
        <ele>429.45935058594</ele>
        <time>2021-07-10T08:56:55Z</time>
      </trkpt>
      <trkpt lat="44.81513" lon="1.71487">
        <ele>430.44580078125</ele>
        <time>2021-07-10T08:57:04Z</time>
      </trkpt>
      <trkpt lat="44.81505" lon="1.71485">
        <ele>429.66333007812</ele>
        <time>2021-07-10T08:57:11Z</time>
      </trkpt>
      <trkpt lat="44.81498" lon="1.71487">
        <ele>427.93792724609</ele>
        <time>2021-07-10T08:57:24Z</time>
      </trkpt>
      <trkpt lat="44.81492" lon="1.71484">
        <ele>429.76708984375</ele>
        <time>2021-07-10T08:57:30Z</time>
      </trkpt>
      <trkpt lat="44.81484" lon="1.71482">
        <ele>428.20300292969</ele>
        <time>2021-07-10T08:57:36Z</time>
      </trkpt>
      <trkpt lat="44.81476" lon="1.71479">
        <ele>428.45971679688</ele>
        <time>2021-07-10T08:57:45Z</time>
      </trkpt>
      <trkpt lat="44.81468" lon="1.71477">
        <ele>424.85546875</ele>
        <time>2021-07-10T08:57:52Z</time>
      </trkpt>
      <trkpt lat="44.8146" lon="1.71476">
        <ele>423.73950195312</ele>
        <time>2021-07-10T08:57:58Z</time>
      </trkpt>
      <trkpt lat="44.81452" lon="1.71475">
        <ele>421.08233642578</ele>
        <time>2021-07-10T08:58:06Z</time>
      </trkpt>
      <trkpt lat="44.81444" lon="1.71471">
        <ele>423.39990234375</ele>
        <time>2021-07-10T08:58:12Z</time>
      </trkpt>
      <trkpt lat="44.81436" lon="1.71469">
        <ele>420.41577148438</ele>
        <time>2021-07-10T08:58:20Z</time>
      </trkpt>
      <trkpt lat="44.81428" lon="1.71466">
        <ele>423.01904296875</ele>
        <time>2021-07-10T08:58:27Z</time>
      </trkpt>
      <trkpt lat="44.81421" lon="1.71459">
        <ele>423.74841308594</ele>
        <time>2021-07-10T08:58:34Z</time>
      </trkpt>
      <trkpt lat="44.81414" lon="1.71454">
        <ele>421.94555664062</ele>
        <time>2021-07-10T08:58:43Z</time>
      </trkpt>
      <trkpt lat="44.81406" lon="1.71451">
        <ele>424.26190185547</ele>
        <time>2021-07-10T08:58:50Z</time>
      </trkpt>
      <trkpt lat="44.81399" lon="1.71455">
        <ele>422.9541015625</ele>
        <time>2021-07-10T08:59:02Z</time>
      </trkpt>
      <trkpt lat="44.81391" lon="1.71451">
        <ele>415.21948242188</ele>
        <time>2021-07-10T08:59:09Z</time>
      </trkpt>
      <trkpt lat="44.81383" lon="1.71447">
        <ele>417.22161865234</ele>
        <time>2021-07-10T08:59:18Z</time>
      </trkpt>
      <trkpt lat="44.81374" lon="1.71444">
        <ele>419.68194580078</ele>
        <time>2021-07-10T08:59:27Z</time>
      </trkpt>
      <trkpt lat="44.81365" lon="1.7144">
        <ele>418.64331054688</ele>
        <time>2021-07-10T08:59:36Z</time>
      </trkpt>
      <trkpt lat="44.81358" lon="1.71443">
        <ele>416.54364013672</ele>
        <time>2021-07-10T08:59:55Z</time>
      </trkpt>
      <trkpt lat="44.8135" lon="1.71441">
        <ele>411.24450683594</ele>
        <time>2021-07-10T09:00:03Z</time>
      </trkpt>
      <trkpt lat="44.81343" lon="1.71439">
        <ele>410.05603027344</ele>
        <time>2021-07-10T09:00:11Z</time>
      </trkpt>
      <trkpt lat="44.81336" lon="1.71437">
        <ele>409.68884277344</ele>
        <time>2021-07-10T09:00:16Z</time>
      </trkpt>
      <trkpt lat="44.81328" lon="1.71437">
        <ele>409.63549804688</ele>
        <time>2021-07-10T09:00:27Z</time>
      </trkpt>
      <trkpt lat="44.81321" lon="1.71435">
        <ele>412.05993652344</ele>
        <time>2021-07-10T09:00:32Z</time>
      </trkpt>
      <trkpt lat="44.81313" lon="1.71433">
        <ele>409.74395751953</ele>
        <time>2021-07-10T09:00:38Z</time>
      </trkpt>
      <trkpt lat="44.81306" lon="1.71433">
        <ele>409.28985595703</ele>
        <time>2021-07-10T09:00:42Z</time>
      </trkpt>
      <trkpt lat="44.81298" lon="1.71428">
        <ele>403.83862304688</ele>
        <time>2021-07-10T09:00:51Z</time>
      </trkpt>
      <trkpt lat="44.81291" lon="1.71422">
        <ele>405.06903076172</ele>
        <time>2021-07-10T09:00:59Z</time>
      </trkpt>
      <trkpt lat="44.81283" lon="1.71419">
        <ele>403.18237304688</ele>
        <time>2021-07-10T09:01:07Z</time>
      </trkpt>
      <trkpt lat="44.81275" lon="1.71414">
        <ele>405.23010253906</ele>
        <time>2021-07-10T09:01:14Z</time>
      </trkpt>
      <trkpt lat="44.81267" lon="1.71411">
        <ele>405.42474365234</ele>
        <time>2021-07-10T09:01:27Z</time>
      </trkpt>
      <trkpt lat="44.81258" lon="1.71411">
        <ele>408.06225585938</ele>
        <time>2021-07-10T09:01:31Z</time>
      </trkpt>
      <trkpt lat="44.81249" lon="1.7141">
        <ele>410.36663818359</ele>
        <time>2021-07-10T09:01:39Z</time>
      </trkpt>
      <trkpt lat="44.81243" lon="1.71405">
        <ele>411.30517578125</ele>
        <time>2021-07-10T09:01:46Z</time>
      </trkpt>
      <trkpt lat="44.81235" lon="1.71399">
        <ele>407.72100830078</ele>
        <time>2021-07-10T09:01:54Z</time>
      </trkpt>
      <trkpt lat="44.81228" lon="1.71394">
        <ele>407.58428955078</ele>
        <time>2021-07-10T09:02:03Z</time>
      </trkpt>
      <trkpt lat="44.8122" lon="1.71393">
        <ele>406.24487304688</ele>
        <time>2021-07-10T09:02:20Z</time>
      </trkpt>
      <trkpt lat="44.81213" lon="1.71388">
        <ele>404.39233398438</ele>
        <time>2021-07-10T09:02:27Z</time>
      </trkpt>
      <trkpt lat="44.81205" lon="1.71384">
        <ele>401.4140625</ele>
        <time>2021-07-10T09:02:35Z</time>
      </trkpt>
      <trkpt lat="44.81197" lon="1.71379">
        <ele>402.18310546875</ele>
        <time>2021-07-10T09:02:40Z</time>
      </trkpt>
      <trkpt lat="44.81191" lon="1.71373">
        <ele>400.61181640625</ele>
        <time>2021-07-10T09:02:49Z</time>
      </trkpt>
      <trkpt lat="44.81183" lon="1.71372">
        <ele>400.54089355469</ele>
        <time>2021-07-10T09:02:55Z</time>
      </trkpt>
      <trkpt lat="44.81175" lon="1.7137">
        <ele>395.09368896484</ele>
        <time>2021-07-10T09:03:02Z</time>
      </trkpt>
      <trkpt lat="44.81167" lon="1.7137">
        <ele>393.79968261719</ele>
        <time>2021-07-10T09:03:09Z</time>
      </trkpt>
      <trkpt lat="44.81158" lon="1.71368">
        <ele>395.58081054688</ele>
        <time>2021-07-10T09:03:17Z</time>
      </trkpt>
      <trkpt lat="44.8115" lon="1.71366">
        <ele>397.71936035156</ele>
        <time>2021-07-10T09:03:24Z</time>
      </trkpt>
      <trkpt lat="44.81142" lon="1.71364">
        <ele>397.14251708984</ele>
        <time>2021-07-10T09:03:32Z</time>
      </trkpt>
      <trkpt lat="44.81135" lon="1.71362">
        <ele>396.57043457031</ele>
        <time>2021-07-10T09:03:38Z</time>
      </trkpt>
      <trkpt lat="44.81127" lon="1.7136">
        <ele>397.70666503906</ele>
        <time>2021-07-10T09:03:44Z</time>
      </trkpt>
      <trkpt lat="44.81119" lon="1.71359">
        <ele>398.66613769531</ele>
        <time>2021-07-10T09:03:53Z</time>
      </trkpt>
      <trkpt lat="44.81111" lon="1.71362">
        <ele>399.15270996094</ele>
        <time>2021-07-10T09:03:59Z</time>
      </trkpt>
      <trkpt lat="44.81103" lon="1.71359">
        <ele>395.70764160156</ele>
        <time>2021-07-10T09:04:07Z</time>
      </trkpt>
      <trkpt lat="44.81095" lon="1.71354">
        <ele>395.47119140625</ele>
        <time>2021-07-10T09:04:15Z</time>
      </trkpt>
      <trkpt lat="44.81087" lon="1.71354">
        <ele>399.13317871094</ele>
        <time>2021-07-10T09:04:23Z</time>
      </trkpt>
      <trkpt lat="44.81079" lon="1.71352">
        <ele>401.68359375</ele>
        <time>2021-07-10T09:04:29Z</time>
      </trkpt>
      <trkpt lat="44.81071" lon="1.7135">
        <ele>400.80639648438</ele>
        <time>2021-07-10T09:04:35Z</time>
      </trkpt>
      <trkpt lat="44.81065" lon="1.71343">
        <ele>396.81567382812</ele>
        <time>2021-07-10T09:04:41Z</time>
      </trkpt>
      <trkpt lat="44.81057" lon="1.71339">
        <ele>396.60131835938</ele>
        <time>2021-07-10T09:04:51Z</time>
      </trkpt>
      <trkpt lat="44.81051" lon="1.71332">
        <ele>394.98657226562</ele>
        <time>2021-07-10T09:04:57Z</time>
      </trkpt>
      <trkpt lat="44.81043" lon="1.71325">
        <ele>391.17559814453</ele>
        <time>2021-07-10T09:05:05Z</time>
      </trkpt>
      <trkpt lat="44.81037" lon="1.71318">
        <ele>389.95556640625</ele>
        <time>2021-07-10T09:05:11Z</time>
      </trkpt>
      <trkpt lat="44.8103" lon="1.7131">
        <ele>392.34820556641</ele>
        <time>2021-07-10T09:05:20Z</time>
      </trkpt>
      <trkpt lat="44.81024" lon="1.71303">
        <ele>391.17700195312</ele>
        <time>2021-07-10T09:05:27Z</time>
      </trkpt>
      <trkpt lat="44.81017" lon="1.71297">
        <ele>390.22735595703</ele>
        <time>2021-07-10T09:05:36Z</time>
      </trkpt>
      <trkpt lat="44.8101" lon="1.71291">
        <ele>394.04046630859</ele>
        <time>2021-07-10T09:05:44Z</time>
      </trkpt>
      <trkpt lat="44.81003" lon="1.71287">
        <ele>394.34997558594</ele>
        <time>2021-07-10T09:05:50Z</time>
      </trkpt>
      <trkpt lat="44.80997" lon="1.7128">
        <ele>394.15771484375</ele>
        <time>2021-07-10T09:05:56Z</time>
      </trkpt>
      <trkpt lat="44.8099" lon="1.71274">
        <ele>390.58190917969</ele>
        <time>2021-07-10T09:06:04Z</time>
      </trkpt>
      <trkpt lat="44.80984" lon="1.71266">
        <ele>391.48748779297</ele>
        <time>2021-07-10T09:06:11Z</time>
      </trkpt>
      <trkpt lat="44.80977" lon="1.71262">
        <ele>390.67687988281</ele>
        <time>2021-07-10T09:06:16Z</time>
      </trkpt>
      <trkpt lat="44.8097" lon="1.71254">
        <ele>390.181640625</ele>
        <time>2021-07-10T09:06:24Z</time>
      </trkpt>
      <trkpt lat="44.80964" lon="1.71247">
        <ele>388.71618652344</ele>
        <time>2021-07-10T09:06:33Z</time>
      </trkpt>
      <trkpt lat="44.80956" lon="1.71242">
        <ele>385.7783203125</ele>
        <time>2021-07-10T09:06:51Z</time>
      </trkpt>
      <trkpt lat="44.80948" lon="1.71239">
        <ele>386.12377929688</ele>
        <time>2021-07-10T09:06:59Z</time>
      </trkpt>
      <trkpt lat="44.8094" lon="1.71235">
        <ele>383.4140625</ele>
        <time>2021-07-10T09:07:07Z</time>
      </trkpt>
      <trkpt lat="44.80933" lon="1.71229">
        <ele>386.10803222656</ele>
        <time>2021-07-10T09:07:14Z</time>
      </trkpt>
      <trkpt lat="44.80926" lon="1.71224">
        <ele>386.66223144531</ele>
        <time>2021-07-10T09:07:20Z</time>
      </trkpt>
      <trkpt lat="44.80919" lon="1.71219">
        <ele>391.32385253906</ele>
        <time>2021-07-10T09:07:25Z</time>
      </trkpt>
      <trkpt lat="44.80913" lon="1.71213">
        <ele>386.06829833984</ele>
        <time>2021-07-10T09:07:31Z</time>
      </trkpt>
      <trkpt lat="44.80905" lon="1.71207">
        <ele>384.62805175781</ele>
        <time>2021-07-10T09:07:39Z</time>
      </trkpt>
      <trkpt lat="44.80897" lon="1.71202">
        <ele>387.45812988281</ele>
        <time>2021-07-10T09:07:47Z</time>
      </trkpt>
      <trkpt lat="44.8089" lon="1.71197">
        <ele>386.44812011719</ele>
        <time>2021-07-10T09:07:55Z</time>
      </trkpt>
      <trkpt lat="44.80883" lon="1.71193">
        <ele>383.96704101562</ele>
        <time>2021-07-10T09:08:01Z</time>
      </trkpt>
      <trkpt lat="44.80875" lon="1.7119">
        <ele>384.31750488281</ele>
        <time>2021-07-10T09:08:09Z</time>
      </trkpt>
      <trkpt lat="44.80868" lon="1.71184">
        <ele>384.60272216797</ele>
        <time>2021-07-10T09:08:22Z</time>
      </trkpt>
      <trkpt lat="44.8086" lon="1.71179">
        <ele>388.02856445312</ele>
        <time>2021-07-10T09:08:35Z</time>
      </trkpt>
      <trkpt lat="44.80854" lon="1.71175">
        <ele>388.63677978516</ele>
        <time>2021-07-10T09:08:42Z</time>
      </trkpt>
      <trkpt lat="44.80846" lon="1.71171">
        <ele>387.65148925781</ele>
        <time>2021-07-10T09:08:48Z</time>
      </trkpt>
      <trkpt lat="44.80838" lon="1.71165">
        <ele>381.91906738281</ele>
        <time>2021-07-10T09:08:57Z</time>
      </trkpt>
      <trkpt lat="44.80831" lon="1.71158">
        <ele>374.18908691406</ele>
        <time>2021-07-10T09:09:13Z</time>
      </trkpt>
      <trkpt lat="44.80823" lon="1.71154">
        <ele>375.21557617188</ele>
        <time>2021-07-10T09:09:21Z</time>
      </trkpt>
      <trkpt lat="44.80817" lon="1.7115">
        <ele>374.91455078125</ele>
        <time>2021-07-10T09:09:28Z</time>
      </trkpt>
      <trkpt lat="44.8081" lon="1.71145">
        <ele>375.45568847656</ele>
        <time>2021-07-10T09:09:36Z</time>
      </trkpt>
      <trkpt lat="44.80805" lon="1.71138">
        <ele>373.57177734375</ele>
        <time>2021-07-10T09:09:42Z</time>
      </trkpt>
      <trkpt lat="44.80797" lon="1.71132">
        <ele>370.98571777344</ele>
        <time>2021-07-10T09:09:50Z</time>
      </trkpt>
      <trkpt lat="44.80789" lon="1.7113">
        <ele>373.73571777344</ele>
        <time>2021-07-10T09:10:00Z</time>
      </trkpt>
      <trkpt lat="44.80782" lon="1.71124">
        <ele>371.75408935547</ele>
        <time>2021-07-10T09:10:06Z</time>
      </trkpt>
      <trkpt lat="44.80775" lon="1.71119">
        <ele>370.52508544922</ele>
        <time>2021-07-10T09:10:16Z</time>
      </trkpt>
      <trkpt lat="44.80768" lon="1.71116">
        <ele>373.13018798828</ele>
        <time>2021-07-10T09:10:23Z</time>
      </trkpt>
      <trkpt lat="44.80761" lon="1.71113">
        <ele>373.07861328125</ele>
        <time>2021-07-10T09:10:34Z</time>
      </trkpt>
      <trkpt lat="44.80754" lon="1.71113">
        <ele>374.89294433594</ele>
        <time>2021-07-10T09:10:40Z</time>
      </trkpt>
      <trkpt lat="44.80746" lon="1.71109">
        <ele>369.51208496094</ele>
        <time>2021-07-10T09:10:47Z</time>
      </trkpt>
      <trkpt lat="44.80738" lon="1.71106">
        <ele>369.43798828125</ele>
        <time>2021-07-10T09:10:52Z</time>
      </trkpt>
      <trkpt lat="44.80731" lon="1.711">
        <ele>371.66662597656</ele>
        <time>2021-07-10T09:11:08Z</time>
      </trkpt>
      <trkpt lat="44.80724" lon="1.71091">
        <ele>371.76733398438</ele>
        <time>2021-07-10T09:11:15Z</time>
      </trkpt>
      <trkpt lat="44.80716" lon="1.71095">
        <ele>368.19372558594</ele>
        <time>2021-07-10T09:14:26Z</time>
      </trkpt>
      <trkpt lat="44.80717" lon="1.71107">
        <ele>376.71051025391</ele>
        <time>2021-07-10T09:18:50Z</time>
      </trkpt>
      <trkpt lat="44.80715" lon="1.71119">
        <ele>379.92370605469</ele>
        <time>2021-07-10T09:18:58Z</time>
      </trkpt>
      <trkpt lat="44.80708" lon="1.71125">
        <ele>374.64953613281</ele>
        <time>2021-07-10T09:19:04Z</time>
      </trkpt>
      <trkpt lat="44.80703" lon="1.71127">
        <ele>373.10290527344</ele>
        <time>2021-07-10T09:19:07Z</time>
      </trkpt>
      <trkpt lat="44.80696" lon="1.7113">
        <ele>371.78662109375</ele>
        <time>2021-07-10T09:19:12Z</time>
      </trkpt>
      <trkpt lat="44.80697" lon="1.71118">
        <ele>370.85845947266</ele>
        <time>2021-07-10T09:19:57Z</time>
      </trkpt>
      <trkpt lat="44.80706" lon="1.71115">
        <ele>372.50378417969</ele>
        <time>2021-07-10T09:20:50Z</time>
      </trkpt>
      <trkpt lat="44.80711" lon="1.71107">
        <ele>370.97027587891</ele>
        <time>2021-07-10T09:20:58Z</time>
      </trkpt>
      <trkpt lat="44.80715" lon="1.71095">
        <ele>367.67602539062</ele>
        <time>2021-07-10T09:21:06Z</time>
      </trkpt>
      <trkpt lat="44.80723" lon="1.71096">
        <ele>374.75256347656</ele>
        <time>2021-07-10T09:23:03Z</time>
      </trkpt>
      <trkpt lat="44.80721" lon="1.71088">
        <ele>373.14538574219</ele>
        <time>2021-07-10T09:28:10Z</time>
      </trkpt>
      <trkpt lat="44.80715" lon="1.71078">
        <ele>372.13427734375</ele>
        <time>2021-07-10T09:28:22Z</time>
      </trkpt>
      <trkpt lat="44.80708" lon="1.71072">
        <ele>373.15295410156</ele>
        <time>2021-07-10T09:29:38Z</time>
      </trkpt>
      <trkpt lat="44.80699" lon="1.71068">
        <ele>373.21716308594</ele>
        <time>2021-07-10T09:29:47Z</time>
      </trkpt>
      <trkpt lat="44.80691" lon="1.71071">
        <ele>375.35974121094</ele>
        <time>2021-07-10T09:30:07Z</time>
      </trkpt>
      <trkpt lat="44.80683" lon="1.71065">
        <ele>377.10327148438</ele>
        <time>2021-07-10T09:30:28Z</time>
      </trkpt>
      <trkpt lat="44.80677" lon="1.71055">
        <ele>377.30853271484</ele>
        <time>2021-07-10T09:30:33Z</time>
      </trkpt>
      <trkpt lat="44.80673" lon="1.71046">
        <ele>373.86181640625</ele>
        <time>2021-07-10T09:30:40Z</time>
      </trkpt>
      <trkpt lat="44.80666" lon="1.71039">
        <ele>370.85064697266</ele>
        <time>2021-07-10T09:30:49Z</time>
      </trkpt>
      <trkpt lat="44.8066" lon="1.71031">
        <ele>371.43780517578</ele>
        <time>2021-07-10T09:31:01Z</time>
      </trkpt>
      <trkpt lat="44.80653" lon="1.71023">
        <ele>367.53918457031</ele>
        <time>2021-07-10T09:31:07Z</time>
      </trkpt>
      <trkpt lat="44.80647" lon="1.71015">
        <ele>365.74291992188</ele>
        <time>2021-07-10T09:31:14Z</time>
      </trkpt>
      <trkpt lat="44.8064" lon="1.71009">
        <ele>365.60174560547</ele>
        <time>2021-07-10T09:31:28Z</time>
      </trkpt>
      <trkpt lat="44.80636" lon="1.70998">
        <ele>362.52056884766</ele>
        <time>2021-07-10T09:31:38Z</time>
      </trkpt>
      <trkpt lat="44.8063" lon="1.7099">
        <ele>364.60467529297</ele>
        <time>2021-07-10T09:31:52Z</time>
      </trkpt>
      <trkpt lat="44.80624" lon="1.70985">
        <ele>364.83557128906</ele>
        <time>2021-07-10T09:32:01Z</time>
      </trkpt>
      <trkpt lat="44.80616" lon="1.70983">
        <ele>365.04443359375</ele>
        <time>2021-07-10T09:32:10Z</time>
      </trkpt>
      <trkpt lat="44.80609" lon="1.70977">
        <ele>364.77941894531</ele>
        <time>2021-07-10T09:32:17Z</time>
      </trkpt>
      <trkpt lat="44.80602" lon="1.70971">
        <ele>360.99340820312</ele>
        <time>2021-07-10T09:32:26Z</time>
      </trkpt>
      <trkpt lat="44.80594" lon="1.70966">
        <ele>359.28973388672</ele>
        <time>2021-07-10T09:32:56Z</time>
      </trkpt>
      <trkpt lat="44.80585" lon="1.70965">
        <ele>359.28588867188</ele>
        <time>2021-07-10T09:33:05Z</time>
      </trkpt>
      <trkpt lat="44.80577" lon="1.70961">
        <ele>358.83953857422</ele>
        <time>2021-07-10T09:33:13Z</time>
      </trkpt>
      <trkpt lat="44.80572" lon="1.70952">
        <ele>360.27288818359</ele>
        <time>2021-07-10T09:33:22Z</time>
      </trkpt>
      <trkpt lat="44.80564" lon="1.70948">
        <ele>357.13134765625</ele>
        <time>2021-07-10T09:33:30Z</time>
      </trkpt>
      <trkpt lat="44.80556" lon="1.70944">
        <ele>354.98815917969</ele>
        <time>2021-07-10T09:33:38Z</time>
      </trkpt>
      <trkpt lat="44.80547" lon="1.70942">
        <ele>358.29504394531</ele>
        <time>2021-07-10T09:33:45Z</time>
      </trkpt>
      <trkpt lat="44.8054" lon="1.70938">
        <ele>356.59442138672</ele>
        <time>2021-07-10T09:33:55Z</time>
      </trkpt>
      <trkpt lat="44.80532" lon="1.70934">
        <ele>357.22436523438</ele>
        <time>2021-07-10T09:34:02Z</time>
      </trkpt>
      <trkpt lat="44.80524" lon="1.70929">
        <ele>358.64074707031</ele>
        <time>2021-07-10T09:34:10Z</time>
      </trkpt>
      <trkpt lat="44.80516" lon="1.70927">
        <ele>360.708984375</ele>
        <time>2021-07-10T09:34:16Z</time>
      </trkpt>
      <trkpt lat="44.80508" lon="1.70924">
        <ele>365.41394042969</ele>
        <time>2021-07-10T09:34:24Z</time>
      </trkpt>
      <trkpt lat="44.80501" lon="1.70919">
        <ele>364.16247558594</ele>
        <time>2021-07-10T09:34:32Z</time>
      </trkpt>
      <trkpt lat="44.80492" lon="1.70917">
        <ele>362.97344970703</ele>
        <time>2021-07-10T09:34:43Z</time>
      </trkpt>
      <trkpt lat="44.80484" lon="1.70917">
        <ele>364.88989257812</ele>
        <time>2021-07-10T09:34:56Z</time>
      </trkpt>
      <trkpt lat="44.80476" lon="1.70922">
        <ele>372.29138183594</ele>
        <time>2021-07-10T09:35:08Z</time>
      </trkpt>
      <trkpt lat="44.80469" lon="1.7093">
        <ele>375.86193847656</ele>
        <time>2021-07-10T09:35:20Z</time>
      </trkpt>
      <trkpt lat="44.80462" lon="1.70936">
        <ele>374.64306640625</ele>
        <time>2021-07-10T09:35:31Z</time>
      </trkpt>
      <trkpt lat="44.80455" lon="1.70942">
        <ele>373.04583740234</ele>
        <time>2021-07-10T09:35:40Z</time>
      </trkpt>
      <trkpt lat="44.80447" lon="1.70945">
        <ele>371.6669921875</ele>
        <time>2021-07-10T09:35:48Z</time>
      </trkpt>
      <trkpt lat="44.8044" lon="1.70949">
        <ele>374.61419677734</ele>
        <time>2021-07-10T09:35:54Z</time>
      </trkpt>
      <trkpt lat="44.80433" lon="1.7095">
        <ele>369.97253417969</ele>
        <time>2021-07-10T09:36:00Z</time>
      </trkpt>
      <trkpt lat="44.80426" lon="1.70942">
        <ele>370.95068359375</ele>
        <time>2021-07-10T09:36:14Z</time>
      </trkpt>
      <trkpt lat="44.80428" lon="1.7093">
        <ele>371.99304199219</ele>
        <time>2021-07-10T09:36:25Z</time>
      </trkpt>
      <trkpt lat="44.80431" lon="1.70919">
        <ele>374.56109619141</ele>
        <time>2021-07-10T09:36:35Z</time>
      </trkpt>
      <trkpt lat="44.80435" lon="1.70908">
        <ele>376.39147949219</ele>
        <time>2021-07-10T09:36:44Z</time>
      </trkpt>
      <trkpt lat="44.80441" lon="1.70899">
        <ele>376.35473632812</ele>
        <time>2021-07-10T09:36:54Z</time>
      </trkpt>
      <trkpt lat="44.80446" lon="1.70891">
        <ele>377.28167724609</ele>
        <time>2021-07-10T09:37:05Z</time>
      </trkpt>
      <trkpt lat="44.80449" lon="1.70881">
        <ele>376.51550292969</ele>
        <time>2021-07-10T09:37:12Z</time>
      </trkpt>
      <trkpt lat="44.80454" lon="1.70873">
        <ele>374.45880126953</ele>
        <time>2021-07-10T09:37:19Z</time>
      </trkpt>
      <trkpt lat="44.80459" lon="1.70863">
        <ele>374.38903808594</ele>
        <time>2021-07-10T09:37:26Z</time>
      </trkpt>
      <trkpt lat="44.80462" lon="1.70852">
        <ele>376.27014160156</ele>
        <time>2021-07-10T09:37:35Z</time>
      </trkpt>
      <trkpt lat="44.80466" lon="1.70842">
        <ele>376.0498046875</ele>
        <time>2021-07-10T09:37:46Z</time>
      </trkpt>
      <trkpt lat="44.80471" lon="1.70831">
        <ele>377.10369873047</ele>
        <time>2021-07-10T09:37:55Z</time>
      </trkpt>
      <trkpt lat="44.80473" lon="1.70819">
        <ele>378.03283691406</ele>
        <time>2021-07-10T09:38:05Z</time>
      </trkpt>
      <trkpt lat="44.80475" lon="1.70809">
        <ele>376.48602294922</ele>
        <time>2021-07-10T09:38:13Z</time>
      </trkpt>
      <trkpt lat="44.8048" lon="1.70799">
        <ele>377.76116943359</ele>
        <time>2021-07-10T09:38:22Z</time>
      </trkpt>
      <trkpt lat="44.80486" lon="1.7079">
        <ele>376.90588378906</ele>
        <time>2021-07-10T09:38:32Z</time>
      </trkpt>
      <trkpt lat="44.80488" lon="1.70781">
        <ele>377.06335449219</ele>
        <time>2021-07-10T09:38:38Z</time>
      </trkpt>
      <trkpt lat="44.80491" lon="1.70769">
        <ele>377.68487548828</ele>
        <time>2021-07-10T09:38:47Z</time>
      </trkpt>
      <trkpt lat="44.80495" lon="1.70759">
        <ele>376.29187011719</ele>
        <time>2021-07-10T09:38:54Z</time>
      </trkpt>
      <trkpt lat="44.80499" lon="1.70748">
        <ele>376.8525390625</ele>
        <time>2021-07-10T09:39:03Z</time>
      </trkpt>
      <trkpt lat="44.80502" lon="1.70738">
        <ele>375.72412109375</ele>
        <time>2021-07-10T09:39:12Z</time>
      </trkpt>
      <trkpt lat="44.80505" lon="1.70727">
        <ele>377.32189941406</ele>
        <time>2021-07-10T09:39:22Z</time>
      </trkpt>
      <trkpt lat="44.80508" lon="1.70718">
        <ele>376.65942382812</ele>
        <time>2021-07-10T09:39:30Z</time>
      </trkpt>
      <trkpt lat="44.80511" lon="1.70706">
        <ele>378.80297851562</ele>
        <time>2021-07-10T09:39:39Z</time>
      </trkpt>
      <trkpt lat="44.80515" lon="1.70695">
        <ele>376.90356445312</ele>
        <time>2021-07-10T09:39:48Z</time>
      </trkpt>
      <trkpt lat="44.8052" lon="1.70687">
        <ele>375.54699707031</ele>
        <time>2021-07-10T09:39:55Z</time>
      </trkpt>
      <trkpt lat="44.80522" lon="1.70679">
        <ele>374.45623779297</ele>
        <time>2021-07-10T09:40:01Z</time>
      </trkpt>
      <trkpt lat="44.80525" lon="1.7067">
        <ele>376.30651855469</ele>
        <time>2021-07-10T09:40:07Z</time>
      </trkpt>
      <trkpt lat="44.80529" lon="1.70662">
        <ele>375.36090087891</ele>
        <time>2021-07-10T09:40:13Z</time>
      </trkpt>
      <trkpt lat="44.80534" lon="1.70654">
        <ele>371.93444824219</ele>
        <time>2021-07-10T09:40:19Z</time>
      </trkpt>
      <trkpt lat="44.80539" lon="1.70645">
        <ele>373.00103759766</ele>
        <time>2021-07-10T09:40:26Z</time>
      </trkpt>
      <trkpt lat="44.80544" lon="1.70637">
        <ele>370.86291503906</ele>
        <time>2021-07-10T09:40:34Z</time>
      </trkpt>
      <trkpt lat="44.80548" lon="1.70628">
        <ele>373.89245605469</ele>
        <time>2021-07-10T09:40:44Z</time>
      </trkpt>
      <trkpt lat="44.80551" lon="1.70616">
        <ele>373.63513183594</ele>
        <time>2021-07-10T09:40:52Z</time>
      </trkpt>
      <trkpt lat="44.80554" lon="1.70605">
        <ele>374.01416015625</ele>
        <time>2021-07-10T09:40:58Z</time>
      </trkpt>
      <trkpt lat="44.80556" lon="1.70594">
        <ele>374.21960449219</ele>
        <time>2021-07-10T09:41:05Z</time>
      </trkpt>
      <trkpt lat="44.8056" lon="1.70584">
        <ele>376.45520019531</ele>
        <time>2021-07-10T09:41:13Z</time>
      </trkpt>
      <trkpt lat="44.80563" lon="1.70573">
        <ele>376.46398925781</ele>
        <time>2021-07-10T09:41:22Z</time>
      </trkpt>
      <trkpt lat="44.80565" lon="1.70562">
        <ele>378.67163085938</ele>
        <time>2021-07-10T09:41:31Z</time>
      </trkpt>
      <trkpt lat="44.80569" lon="1.70551">
        <ele>376.01184082031</ele>
        <time>2021-07-10T09:41:38Z</time>
      </trkpt>
      <trkpt lat="44.80573" lon="1.70541">
        <ele>377.33508300781</ele>
        <time>2021-07-10T09:41:48Z</time>
      </trkpt>
      <trkpt lat="44.80577" lon="1.7053">
        <ele>373.80041503906</ele>
        <time>2021-07-10T09:41:56Z</time>
      </trkpt>
      <trkpt lat="44.80578" lon="1.70518">
        <ele>375.94763183594</ele>
        <time>2021-07-10T09:42:04Z</time>
      </trkpt>
      <trkpt lat="44.80579" lon="1.70508">
        <ele>372.61145019531</ele>
        <time>2021-07-10T09:42:11Z</time>
      </trkpt>
      <trkpt lat="44.8058" lon="1.70496">
        <ele>373.00451660156</ele>
        <time>2021-07-10T09:42:18Z</time>
      </trkpt>
      <trkpt lat="44.80584" lon="1.70486">
        <ele>370.64013671875</ele>
        <time>2021-07-10T09:42:26Z</time>
      </trkpt>
      <trkpt lat="44.80584" lon="1.70475">
        <ele>370.41125488281</ele>
        <time>2021-07-10T09:42:32Z</time>
      </trkpt>
      <trkpt lat="44.80584" lon="1.70465">
        <ele>373.63269042969</ele>
        <time>2021-07-10T09:42:38Z</time>
      </trkpt>
      <trkpt lat="44.80586" lon="1.70454">
        <ele>375.27276611328</ele>
        <time>2021-07-10T09:42:45Z</time>
      </trkpt>
      <trkpt lat="44.80587" lon="1.70443">
        <ele>375.32312011719</ele>
        <time>2021-07-10T09:42:54Z</time>
      </trkpt>
      <trkpt lat="44.80586" lon="1.7043">
        <ele>374.52429199219</ele>
        <time>2021-07-10T09:43:04Z</time>
      </trkpt>
      <trkpt lat="44.80587" lon="1.7042">
        <ele>372.03192138672</ele>
        <time>2021-07-10T09:43:11Z</time>
      </trkpt>
      <trkpt lat="44.80586" lon="1.70409">
        <ele>373.32531738281</ele>
        <time>2021-07-10T09:43:17Z</time>
      </trkpt>
      <trkpt lat="44.80582" lon="1.70398">
        <ele>373.34191894531</ele>
        <time>2021-07-10T09:43:25Z</time>
      </trkpt>
      <trkpt lat="44.8058" lon="1.70388">
        <ele>371.68389892578</ele>
        <time>2021-07-10T09:43:33Z</time>
      </trkpt>
      <trkpt lat="44.80578" lon="1.70377">
        <ele>373.26281738281</ele>
        <time>2021-07-10T09:43:41Z</time>
      </trkpt>
      <trkpt lat="44.80575" lon="1.70366">
        <ele>373.57482910156</ele>
        <time>2021-07-10T09:43:50Z</time>
      </trkpt>
      <trkpt lat="44.80573" lon="1.70356">
        <ele>374.88568115234</ele>
        <time>2021-07-10T09:43:56Z</time>
      </trkpt>
      <trkpt lat="44.80572" lon="1.70344">
        <ele>374.31201171875</ele>
        <time>2021-07-10T09:44:03Z</time>
      </trkpt>
      <trkpt lat="44.8057" lon="1.70334">
        <ele>375.39721679688</ele>
        <time>2021-07-10T09:44:14Z</time>
      </trkpt>
      <trkpt lat="44.80569" lon="1.70322">
        <ele>374.83605957031</ele>
        <time>2021-07-10T09:44:23Z</time>
      </trkpt>
      <trkpt lat="44.80568" lon="1.7031">
        <ele>372.77349853516</ele>
        <time>2021-07-10T09:44:30Z</time>
      </trkpt>
      <trkpt lat="44.80568" lon="1.70298">
        <ele>370.56207275391</ele>
        <time>2021-07-10T09:44:40Z</time>
      </trkpt>
      <trkpt lat="44.80567" lon="1.70288">
        <ele>371.73431396484</ele>
        <time>2021-07-10T09:44:47Z</time>
      </trkpt>
      <trkpt lat="44.80567" lon="1.70279">
        <ele>368.82824707031</ele>
        <time>2021-07-10T09:44:53Z</time>
      </trkpt>
      <trkpt lat="44.80566" lon="1.70269">
        <ele>368.34539794922</ele>
        <time>2021-07-10T09:44:59Z</time>
      </trkpt>
      <trkpt lat="44.80564" lon="1.70257">
        <ele>369.56042480469</ele>
        <time>2021-07-10T09:45:08Z</time>
      </trkpt>
      <trkpt lat="44.80565" lon="1.70246">
        <ele>364.37036132812</ele>
        <time>2021-07-10T09:45:17Z</time>
      </trkpt>
      <trkpt lat="44.80564" lon="1.70235">
        <ele>362.66302490234</ele>
        <time>2021-07-10T09:45:22Z</time>
      </trkpt>
      <trkpt lat="44.80563" lon="1.70224">
        <ele>362.56237792969</ele>
        <time>2021-07-10T09:45:28Z</time>
      </trkpt>
      <trkpt lat="44.80561" lon="1.70214">
        <ele>361.7314453125</ele>
        <time>2021-07-10T09:45:34Z</time>
      </trkpt>
      <trkpt lat="44.80559" lon="1.70204">
        <ele>359.63323974609</ele>
        <time>2021-07-10T09:45:43Z</time>
      </trkpt>
      <trkpt lat="44.80559" lon="1.70192">
        <ele>359.26037597656</ele>
        <time>2021-07-10T09:45:55Z</time>
      </trkpt>
      <trkpt lat="44.80559" lon="1.70183">
        <ele>359.86535644531</ele>
        <time>2021-07-10T09:46:01Z</time>
      </trkpt>
      <trkpt lat="44.80558" lon="1.70173">
        <ele>360.77404785156</ele>
        <time>2021-07-10T09:46:07Z</time>
      </trkpt>
      <trkpt lat="44.80557" lon="1.70161">
        <ele>356.89874267578</ele>
        <time>2021-07-10T09:46:18Z</time>
      </trkpt>
      <trkpt lat="44.80555" lon="1.70149">
        <ele>356.50317382812</ele>
        <time>2021-07-10T09:46:26Z</time>
      </trkpt>
      <trkpt lat="44.80553" lon="1.70137">
        <ele>356.12432861328</ele>
        <time>2021-07-10T09:46:34Z</time>
      </trkpt>
      <trkpt lat="44.80553" lon="1.70126">
        <ele>357.0751953125</ele>
        <time>2021-07-10T09:46:43Z</time>
      </trkpt>
      <trkpt lat="44.80552" lon="1.70116">
        <ele>355.0517578125</ele>
        <time>2021-07-10T09:46:52Z</time>
      </trkpt>
      <trkpt lat="44.8055" lon="1.70105">
        <ele>356.67663574219</ele>
        <time>2021-07-10T09:46:59Z</time>
      </trkpt>
      <trkpt lat="44.80549" lon="1.70096">
        <ele>356.44372558594</ele>
        <time>2021-07-10T09:47:06Z</time>
      </trkpt>
      <trkpt lat="44.80548" lon="1.70088">
        <ele>356.23486328125</ele>
        <time>2021-07-10T09:47:12Z</time>
      </trkpt>
      <trkpt lat="44.80546" lon="1.70077">
        <ele>353.99591064453</ele>
        <time>2021-07-10T09:47:18Z</time>
      </trkpt>
      <trkpt lat="44.80545" lon="1.70066">
        <ele>352.21734619141</ele>
        <time>2021-07-10T09:47:27Z</time>
      </trkpt>
      <trkpt lat="44.80542" lon="1.70055">
        <ele>352.24176025391</ele>
        <time>2021-07-10T09:47:36Z</time>
      </trkpt>
      <trkpt lat="44.80541" lon="1.70044">
        <ele>349.33178710938</ele>
        <time>2021-07-10T09:47:42Z</time>
      </trkpt>
      <trkpt lat="44.80538" lon="1.70034">
        <ele>349.08514404297</ele>
        <time>2021-07-10T09:47:48Z</time>
      </trkpt>
      <trkpt lat="44.80537" lon="1.70023">
        <ele>348.82836914062</ele>
        <time>2021-07-10T09:47:54Z</time>
      </trkpt>
      <trkpt lat="44.80535" lon="1.70013">
        <ele>349.341796875</ele>
        <time>2021-07-10T09:48:03Z</time>
      </trkpt>
      <trkpt lat="44.80539" lon="1.70002">
        <ele>348.18334960938</ele>
        <time>2021-07-10T09:48:18Z</time>
      </trkpt>
      <trkpt lat="44.80544" lon="1.69992">
        <ele>347.1376953125</ele>
        <time>2021-07-10T09:48:28Z</time>
      </trkpt>
      <trkpt lat="44.80543" lon="1.6998">
        <ele>346.94604492188</ele>
        <time>2021-07-10T09:48:37Z</time>
      </trkpt>
      <trkpt lat="44.80544" lon="1.69969">
        <ele>346.134765625</ele>
        <time>2021-07-10T09:48:45Z</time>
      </trkpt>
      <trkpt lat="44.80542" lon="1.69958">
        <ele>346.85205078125</ele>
        <time>2021-07-10T09:48:56Z</time>
      </trkpt>
      <trkpt lat="44.80539" lon="1.69946">
        <ele>344.94543457031</ele>
        <time>2021-07-10T09:49:08Z</time>
      </trkpt>
      <trkpt lat="44.80534" lon="1.69939">
        <ele>342.87524414062</ele>
        <time>2021-07-10T09:49:15Z</time>
      </trkpt>
      <trkpt lat="44.80527" lon="1.69933">
        <ele>346.74169921875</ele>
        <time>2021-07-10T09:49:21Z</time>
      </trkpt>
      <trkpt lat="44.8052" lon="1.69926">
        <ele>347.32305908203</ele>
        <time>2021-07-10T09:49:30Z</time>
      </trkpt>
      <trkpt lat="44.80514" lon="1.69917">
        <ele>347.70654296875</ele>
        <time>2021-07-10T09:49:39Z</time>
      </trkpt>
      <trkpt lat="44.80513" lon="1.69907">
        <ele>347.92919921875</ele>
        <time>2021-07-10T09:49:46Z</time>
      </trkpt>
      <trkpt lat="44.80511" lon="1.69897">
        <ele>343.53125</ele>
        <time>2021-07-10T09:49:52Z</time>
      </trkpt>
      <trkpt lat="44.80508" lon="1.69886">
        <ele>339.77569580078</ele>
        <time>2021-07-10T09:49:58Z</time>
      </trkpt>
      <trkpt lat="44.80508" lon="1.69876">
        <ele>337.56274414062</ele>
        <time>2021-07-10T09:50:04Z</time>
      </trkpt>
      <trkpt lat="44.80506" lon="1.69866">
        <ele>338.39965820312</ele>
        <time>2021-07-10T09:50:10Z</time>
      </trkpt>
      <trkpt lat="44.80504" lon="1.69857">
        <ele>337.62890625</ele>
        <time>2021-07-10T09:50:16Z</time>
      </trkpt>
      <trkpt lat="44.80503" lon="1.69846">
        <ele>338.78674316406</ele>
        <time>2021-07-10T09:50:24Z</time>
      </trkpt>
      <trkpt lat="44.80503" lon="1.69835">
        <ele>336.33459472656</ele>
        <time>2021-07-10T09:50:31Z</time>
      </trkpt>
      <trkpt lat="44.80507" lon="1.69823">
        <ele>337.029296875</ele>
        <time>2021-07-10T09:50:40Z</time>
      </trkpt>
      <trkpt lat="44.80506" lon="1.69813">
        <ele>337.55432128906</ele>
        <time>2021-07-10T09:50:46Z</time>
      </trkpt>
      <trkpt lat="44.80509" lon="1.69802">
        <ele>334.71899414062</ele>
        <time>2021-07-10T09:50:55Z</time>
      </trkpt>
      <trkpt lat="44.8051" lon="1.69791">
        <ele>337.50451660156</ele>
        <time>2021-07-10T09:51:03Z</time>
      </trkpt>
      <trkpt lat="44.8051" lon="1.69779">
        <ele>341.33203125</ele>
        <time>2021-07-10T09:51:13Z</time>
      </trkpt>
      <trkpt lat="44.80506" lon="1.69771">
        <ele>337.19055175781</ele>
        <time>2021-07-10T09:51:20Z</time>
      </trkpt>
      <trkpt lat="44.80504" lon="1.69759">
        <ele>337.51171875</ele>
        <time>2021-07-10T09:51:28Z</time>
      </trkpt>
      <trkpt lat="44.80504" lon="1.69748">
        <ele>334.54174804688</ele>
        <time>2021-07-10T09:51:35Z</time>
      </trkpt>
      <trkpt lat="44.80503" lon="1.69737">
        <ele>335.29089355469</ele>
        <time>2021-07-10T09:51:41Z</time>
      </trkpt>
      <trkpt lat="44.80498" lon="1.69726">
        <ele>334.3681640625</ele>
        <time>2021-07-10T09:51:50Z</time>
      </trkpt>
      <trkpt lat="44.80494" lon="1.69716">
        <ele>334.33654785156</ele>
        <time>2021-07-10T09:51:56Z</time>
      </trkpt>
      <trkpt lat="44.8049" lon="1.69707">
        <ele>334.19470214844</ele>
        <time>2021-07-10T09:52:02Z</time>
      </trkpt>
      <trkpt lat="44.80486" lon="1.69697">
        <ele>336.05676269531</ele>
        <time>2021-07-10T09:52:11Z</time>
      </trkpt>
      <trkpt lat="44.80483" lon="1.69685">
        <ele>335.07702636719</ele>
        <time>2021-07-10T09:52:19Z</time>
      </trkpt>
      <trkpt lat="44.80479" lon="1.69674">
        <ele>336.27917480469</ele>
        <time>2021-07-10T09:52:26Z</time>
      </trkpt>
      <trkpt lat="44.80477" lon="1.69663">
        <ele>336.08728027344</ele>
        <time>2021-07-10T09:52:33Z</time>
      </trkpt>
      <trkpt lat="44.80473" lon="1.69652">
        <ele>336.01904296875</ele>
        <time>2021-07-10T09:52:39Z</time>
      </trkpt>
      <trkpt lat="44.80473" lon="1.69642">
        <ele>332.73876953125</ele>
        <time>2021-07-10T09:52:47Z</time>
      </trkpt>
      <trkpt lat="44.80472" lon="1.69631">
        <ele>331.39038085938</ele>
        <time>2021-07-10T09:52:54Z</time>
      </trkpt>
      <trkpt lat="44.80472" lon="1.6962">
        <ele>335.32312011719</ele>
        <time>2021-07-10T09:53:03Z</time>
      </trkpt>
      <trkpt lat="44.8047" lon="1.69609">
        <ele>333.75061035156</ele>
        <time>2021-07-10T09:53:10Z</time>
      </trkpt>
      <trkpt lat="44.80468" lon="1.696">
        <ele>330.46948242188</ele>
        <time>2021-07-10T09:53:16Z</time>
      </trkpt>
      <trkpt lat="44.80469" lon="1.69589">
        <ele>327.05541992188</ele>
        <time>2021-07-10T09:53:22Z</time>
      </trkpt>
      <trkpt lat="44.8047" lon="1.69577">
        <ele>331.44348144531</ele>
        <time>2021-07-10T09:53:33Z</time>
      </trkpt>
      <trkpt lat="44.80472" lon="1.69569">
        <ele>324.34417724609</ele>
        <time>2021-07-10T09:53:37Z</time>
      </trkpt>
      <trkpt lat="44.80477" lon="1.69561">
        <ele>323.88580322266</ele>
        <time>2021-07-10T09:53:43Z</time>
      </trkpt>
      <trkpt lat="44.80482" lon="1.69551">
        <ele>327.25854492188</ele>
        <time>2021-07-10T09:53:52Z</time>
      </trkpt>
      <trkpt lat="44.80483" lon="1.69544">
        <ele>330.39935302734</ele>
        <time>2021-07-10T09:54:39Z</time>
      </trkpt>
      <trkpt lat="44.80483" lon="1.69544">
        <ele>330.39935302734</ele>
        <time>2021-07-10T09:54:39Z</time>
      </trkpt>
    </trkseg>
  </trk>
</gpx>